<?xml version="1.0" encoding="UTF-8" standalone="no" ?><gpx xmlns="http://www.topografix.com/GPX/1/1" xmlns:gpxx="http://www.garmin.com/xmlschemas/GpxExtensions/v3" xmlns:wptx1="http://www.garmin.com/xmlschemas/WaypointExtension/v1" xmlns:gpxtpx="http://www.garmin.com/xmlschemas/TrackPointExtension/v1" creator="GuideVTT.com" version="1.1" xmlns:xsi="http://www.w3.org/2001/XMLSchema-instance" xsi:schemaLocation="http://www.topografix.com/GPX/1/1 http://www.topografix.com/GPX/1/1/gpx.xsd http://www.garmin.com/xmlschemas/GpxExtensions/v3 http://www8.garmin.com/xmlschemas/GpxExtensionsv3.xsd http://www.garmin.com/xmlschemas/WaypointExtension/v1 http://www8.garmin.com/xmlschemas/WaypointExtensionv1.xsd http://www.garmin.com/xmlschemas/TrackPointExtension/v1 http://www.garmin.com/xmlschemas/TrackPointExtensionv1.xsd">
<metadata><link href="http://www.garmin.com"><text>Garmin International</text></link><time>2013-06-22T15:13:50Z</time></metadata>
<trk><name>saillon-fully09.06.09.gpx</name><extensions><gpxx:TrackExtension><gpxx:DisplayColor>Cyan</gpxx:DisplayColor></gpxx:TrackExtension></extensions><trkseg>
<trkpt lat="46.16934967" lon="7.17886209"><ele>469.028015</ele><time>2009-06-09T16:09:01Z</time></trkpt>
<trkpt lat="46.16931534" lon="7.17870808"><ele>469.632996</ele><time>2009-06-09T16:09:07Z</time></trkpt>
<trkpt lat="46.16926575" lon="7.17849398"><ele>470.105011</ele><time>2009-06-09T16:09:14Z</time></trkpt>
<trkpt lat="46.16921616" lon="7.17822695"><ele>471.992981</ele><time>2009-06-09T16:09:21Z</time></trkpt>
<trkpt lat="46.16917419" lon="7.17801714"><ele>472.261993</ele><time>2009-06-09T16:09:26Z</time></trkpt>
<trkpt lat="46.16915131" lon="7.17775297"><ele>472.307007</ele><time>2009-06-09T16:09:32Z</time></trkpt>
<trkpt lat="46.16918945" lon="7.17755413"><ele>472.300995</ele><time>2009-06-09T16:09:36Z</time></trkpt>
<trkpt lat="46.16933823" lon="7.17726707"><ele>472.54599</ele><time>2009-06-09T16:09:43Z</time></trkpt>
<trkpt lat="46.16937256" lon="7.17713881"><ele>473.016998</ele><time>2009-06-09T16:09:46Z</time></trkpt>
<trkpt lat="46.16927719" lon="7.17694998"><ele>473.220001</ele><time>2009-06-09T16:09:51Z</time></trkpt>
<trkpt lat="46.16920090" lon="7.17670918"><ele>473.342987</ele><time>2009-06-09T16:09:56Z</time></trkpt>
<trkpt lat="46.16917419" lon="7.17661810"><ele>473.360992</ele><time>2009-06-09T16:09:58Z</time></trkpt>
<trkpt lat="46.16900253" lon="7.17658377"><ele>473.140015</ele><time>2009-06-09T16:10:03Z</time></trkpt>
<trkpt lat="46.16896439" lon="7.17661715"><ele>472.90799</ele><time>2009-06-09T16:10:04Z</time></trkpt>
<trkpt lat="46.16888428" lon="7.17669010"><ele>472.556</ele><time>2009-06-09T16:10:06Z</time></trkpt>
<trkpt lat="46.16870117" lon="7.17694378"><ele>471.558014</ele><time>2009-06-09T16:10:11Z</time></trkpt>
<trkpt lat="46.16849136" lon="7.17717218"><ele>470.739014</ele><time>2009-06-09T16:10:16Z</time></trkpt>
<trkpt lat="46.16831589" lon="7.17725897"><ele>470.341003</ele><time>2009-06-09T16:10:20Z</time></trkpt>
<trkpt lat="46.16818237" lon="7.17714787"><ele>469.875977</ele><time>2009-06-09T16:10:24Z</time></trkpt>
<trkpt lat="46.16810608" lon="7.17653608"><ele>469.053986</ele><time>2009-06-09T16:10:33Z</time></trkpt>
<trkpt lat="46.16803360" lon="7.17611694"><ele>468.665009</ele><time>2009-06-09T16:10:39Z</time></trkpt>
<trkpt lat="46.16795349" lon="7.17562580"><ele>469.013</ele><time>2009-06-09T16:10:46Z</time></trkpt>
<trkpt lat="46.16785812" lon="7.17500019"><ele>468.713989</ele><time>2009-06-09T16:10:55Z</time></trkpt>
<trkpt lat="46.16776276" lon="7.17436886"><ele>468.675995</ele><time>2009-06-09T16:11:04Z</time></trkpt>
<trkpt lat="46.16767120" lon="7.17374706"><ele>468.102997</ele><time>2009-06-09T16:11:13Z</time></trkpt>
<trkpt lat="46.16757202" lon="7.17312813"><ele>468.343994</ele><time>2009-06-09T16:11:22Z</time></trkpt>
<trkpt lat="46.16748810" lon="7.17258501"><ele>469.316986</ele><time>2009-06-09T16:11:30Z</time></trkpt>
<trkpt lat="46.16740417" lon="7.17204523"><ele>469.246002</ele><time>2009-06-09T16:11:38Z</time></trkpt>
<trkpt lat="46.16730881" lon="7.17157793"><ele>469.03299</ele><time>2009-06-09T16:11:45Z</time></trkpt>
<trkpt lat="46.16728973" lon="7.17151499"><ele>469.074005</ele><time>2009-06-09T16:11:46Z</time></trkpt>
<trkpt lat="46.16720963" lon="7.17134380"><ele>469.256012</ele><time>2009-06-09T16:11:49Z</time></trkpt>
<trkpt lat="46.16688538" lon="7.17085791"><ele>469.55899</ele><time>2009-06-09T16:11:59Z</time></trkpt>
<trkpt lat="46.16667938" lon="7.17057419"><ele>469.493988</ele><time>2009-06-09T16:12:05Z</time></trkpt>
<trkpt lat="46.16629791" lon="7.17005205"><ele>469.774017</ele><time>2009-06-09T16:12:16Z</time></trkpt>
<trkpt lat="46.16594315" lon="7.16960287"><ele>470.404999</ele><time>2009-06-09T16:12:26Z</time></trkpt>
<trkpt lat="46.16560745" lon="7.16923523"><ele>470.394989</ele><time>2009-06-09T16:12:35Z</time></trkpt>
<trkpt lat="46.16535950" lon="7.16897488"><ele>470.442993</ele><time>2009-06-09T16:12:42Z</time></trkpt>
<trkpt lat="46.16508865" lon="7.16870785"><ele>469.882996</ele><time>2009-06-09T16:12:50Z</time></trkpt>
<trkpt lat="46.16482544" lon="7.16843319"><ele>469.381989</ele><time>2009-06-09T16:12:58Z</time></trkpt>
<trkpt lat="46.16471863" lon="7.16832685"><ele>469.27301</ele><time>2009-06-09T16:13:01Z</time></trkpt>
<trkpt lat="46.16440964" lon="7.16800690"><ele>469.144012</ele><time>2009-06-09T16:13:10Z</time></trkpt>
<trkpt lat="46.16409683" lon="7.16768980"><ele>469.234985</ele><time>2009-06-09T16:13:19Z</time></trkpt>
<trkpt lat="46.16368484" lon="7.16728210"><ele>469.243011</ele><time>2009-06-09T16:13:31Z</time></trkpt>
<trkpt lat="46.16352081" lon="7.16711521"><ele>469.162994</ele><time>2009-06-09T16:13:36Z</time></trkpt>
<trkpt lat="46.16321182" lon="7.16679907"><ele>469.042999</ele><time>2009-06-09T16:13:45Z</time></trkpt>
<trkpt lat="46.16303635" lon="7.16662693"><ele>469.083008</ele><time>2009-06-09T16:13:50Z</time></trkpt>
<trkpt lat="46.16272354" lon="7.16630983"><ele>469.517029</ele><time>2009-06-09T16:13:59Z</time></trkpt>
<trkpt lat="46.16247940" lon="7.16606522"><ele>469.391998</ele><time>2009-06-09T16:14:06Z</time></trkpt>
<trkpt lat="46.16221619" lon="7.16578007"><ele>468.991974</ele><time>2009-06-09T16:14:14Z</time></trkpt>
<trkpt lat="46.16189957" lon="7.16545296"><ele>468.990997</ele><time>2009-06-09T16:14:23Z</time></trkpt>
<trkpt lat="46.16186523" lon="7.16541719"><ele>468.771027</ele><time>2009-06-09T16:14:24Z</time></trkpt>
<trkpt lat="46.16167068" lon="7.16511297"><ele>469.242004</ele><time>2009-06-09T16:14:31Z</time></trkpt>
<trkpt lat="46.16150284" lon="7.16461611"><ele>469.825012</ele><time>2009-06-09T16:14:40Z</time></trkpt>
<trkpt lat="46.16133881" lon="7.16402912"><ele>470.395996</ele><time>2009-06-09T16:14:50Z</time></trkpt>
<trkpt lat="46.16118622" lon="7.16342497"><ele>469.833008</ele><time>2009-06-09T16:15:00Z</time></trkpt>
<trkpt lat="46.16105270" lon="7.16294003"><ele>469.247009</ele><time>2009-06-09T16:15:08Z</time></trkpt>
<trkpt lat="46.16098022" lon="7.16270018"><ele>468.934998</ele><time>2009-06-09T16:15:12Z</time></trkpt>
<trkpt lat="46.16085052" lon="7.16231203"><ele>468.950012</ele><time>2009-06-09T16:15:19Z</time></trkpt>
<trkpt lat="46.16064835" lon="7.16188097"><ele>468.586975</ele><time>2009-06-09T16:15:27Z</time></trkpt>
<trkpt lat="46.16042709" lon="7.16145420"><ele>468.558014</ele><time>2009-06-09T16:15:35Z</time></trkpt>
<trkpt lat="46.16013336" lon="7.16090918"><ele>468.630005</ele><time>2009-06-09T16:15:45Z</time></trkpt>
<trkpt lat="46.15985870" lon="7.16051292"><ele>468.730988</ele><time>2009-06-09T16:15:53Z</time></trkpt>
<trkpt lat="46.15958405" lon="7.16013288"><ele>468.972961</ele><time>2009-06-09T16:16:01Z</time></trkpt>
<trkpt lat="46.15924835" lon="7.15967894"><ele>469.691986</ele><time>2009-06-09T16:16:11Z</time></trkpt>
<trkpt lat="46.15904236" lon="7.15940189"><ele>469.951996</ele><time>2009-06-09T16:16:17Z</time></trkpt>
<trkpt lat="46.15876770" lon="7.15902376"><ele>470.382019</ele><time>2009-06-09T16:16:26Z</time></trkpt>
<trkpt lat="46.15850449" lon="7.15862894"><ele>470.309998</ele><time>2009-06-09T16:16:35Z</time></trkpt>
<trkpt lat="46.15820313" lon="7.15809822"><ele>470.25</ele><time>2009-06-09T16:16:45Z</time></trkpt>
<trkpt lat="46.15796661" lon="7.15770102"><ele>470.450989</ele><time>2009-06-09T16:16:52Z</time></trkpt>
<trkpt lat="46.15763474" lon="7.15709400"><ele>470.52002</ele><time>2009-06-09T16:17:02Z</time></trkpt>
<trkpt lat="46.15740967" lon="7.15668392"><ele>470.660004</ele><time>2009-06-09T16:17:10Z</time></trkpt>
<trkpt lat="46.15716171" lon="7.15624523"><ele>470.769989</ele><time>2009-06-09T16:17:20Z</time></trkpt>
<trkpt lat="46.15702438" lon="7.15600300"><ele>470.647003</ele><time>2009-06-09T16:17:27Z</time></trkpt>
<trkpt lat="46.15699387" lon="7.15594482"><ele>470.497009</ele><time>2009-06-09T16:17:30Z</time></trkpt>
<trkpt lat="46.15702438" lon="7.15584183"><ele>468.585999</ele><time>2009-06-09T16:17:34Z</time></trkpt>
<trkpt lat="46.15717316" lon="7.15570021"><ele>467.062012</ele><time>2009-06-09T16:17:40Z</time></trkpt>
<trkpt lat="46.15742493" lon="7.15544891"><ele>466.811035</ele><time>2009-06-09T16:17:48Z</time></trkpt>
<trkpt lat="46.15764236" lon="7.15522385"><ele>466.960999</ele><time>2009-06-09T16:17:55Z</time></trkpt>
<trkpt lat="46.15784454" lon="7.15501404"><ele>467.447998</ele><time>2009-06-09T16:18:02Z</time></trkpt>
<trkpt lat="46.15788651" lon="7.15497398"><ele>467.558014</ele><time>2009-06-09T16:18:04Z</time></trkpt>
<trkpt lat="46.15787125" lon="7.15479708"><ele>467.946991</ele><time>2009-06-09T16:18:09Z</time></trkpt>
<trkpt lat="46.15785217" lon="7.15475988"><ele>468.109985</ele><time>2009-06-09T16:18:10Z</time></trkpt>
<trkpt lat="46.15774155" lon="7.15449095"><ele>469.434021</ele><time>2009-06-09T16:18:17Z</time></trkpt>
<trkpt lat="46.15760422" lon="7.15409279"><ele>469.786011</ele><time>2009-06-09T16:18:26Z</time></trkpt>
<trkpt lat="46.15750885" lon="7.15368605"><ele>469.082001</ele><time>2009-06-09T16:18:34Z</time></trkpt>
<trkpt lat="46.15739441" lon="7.15323687"><ele>467.569</ele><time>2009-06-09T16:18:41Z</time></trkpt>
<trkpt lat="46.15723038" lon="7.15280008"><ele>466.412994</ele><time>2009-06-09T16:18:47Z</time></trkpt>
<trkpt lat="46.15703201" lon="7.15235281"><ele>466.096008</ele><time>2009-06-09T16:18:54Z</time></trkpt>
<trkpt lat="46.15692520" lon="7.15213585"><ele>466.217987</ele><time>2009-06-09T16:18:58Z</time></trkpt>
<trkpt lat="46.15680695" lon="7.15194511"><ele>466.308014</ele><time>2009-06-09T16:19:02Z</time></trkpt>
<trkpt lat="46.15665054" lon="7.15180397"><ele>466.838989</ele><time>2009-06-09T16:19:06Z</time></trkpt>
<trkpt lat="46.15614700" lon="7.15154505"><ele>467.127991</ele><time>2009-06-09T16:19:18Z</time></trkpt>
<trkpt lat="46.15572357" lon="7.15132284"><ele>467.259003</ele><time>2009-06-09T16:19:29Z</time></trkpt>
<trkpt lat="46.15568542" lon="7.15130186"><ele>467.208008</ele><time>2009-06-09T16:19:30Z</time></trkpt>
<trkpt lat="46.15535736" lon="7.15116215"><ele>467.449005</ele><time>2009-06-09T16:19:38Z</time></trkpt>
<trkpt lat="46.15506363" lon="7.15099096"><ele>468.295013</ele><time>2009-06-09T16:19:46Z</time></trkpt>
<trkpt lat="46.15502167" lon="7.15093803"><ele>468.987</ele><time>2009-06-09T16:19:48Z</time></trkpt>
<trkpt lat="46.15504074" lon="7.15076399"><ele>469.605011</ele><time>2009-06-09T16:19:52Z</time></trkpt>
<trkpt lat="46.15521240" lon="7.15037298"><ele>469.890015</ele><time>2009-06-09T16:20:00Z</time></trkpt>
<trkpt lat="46.15539169" lon="7.14997578"><ele>471.528992</ele><time>2009-06-09T16:20:09Z</time></trkpt>
<trkpt lat="46.15544128" lon="7.14972401"><ele>472.088989</ele><time>2009-06-09T16:20:15Z</time></trkpt>
<trkpt lat="46.15541077" lon="7.14946413"><ele>472.499023</ele><time>2009-06-09T16:20:21Z</time></trkpt>
<trkpt lat="46.15524673" lon="7.14919806"><ele>471.649994</ele><time>2009-06-09T16:20:28Z</time></trkpt>
<trkpt lat="46.15516663" lon="7.14906788"><ele>471.69696</ele><time>2009-06-09T16:20:31Z</time></trkpt>
<trkpt lat="46.15507889" lon="7.14873219"><ele>471.075012</ele><time>2009-06-09T16:20:37Z</time></trkpt>
<trkpt lat="46.15499496" lon="7.14811707"><ele>470.493988</ele><time>2009-06-09T16:20:47Z</time></trkpt>
<trkpt lat="46.15498734" lon="7.14805317"><ele>470.496002</ele><time>2009-06-09T16:20:48Z</time></trkpt>
<trkpt lat="46.15496445" lon="7.14792919"><ele>470.303986</ele><time>2009-06-09T16:20:50Z</time></trkpt>
<trkpt lat="46.15486908" lon="7.14734602"><ele>469.303955</ele><time>2009-06-09T16:21:00Z</time></trkpt>
<trkpt lat="46.15483093" lon="7.14685917"><ele>468.583008</ele><time>2009-06-09T16:21:07Z</time></trkpt>
<trkpt lat="46.15479279" lon="7.14628887"><ele>466.947968</ele><time>2009-06-09T16:21:14Z</time></trkpt>
<trkpt lat="46.15472412" lon="7.14564610"><ele>466.369995</ele><time>2009-06-09T16:21:22Z</time></trkpt>
<trkpt lat="46.15472412" lon="7.14521694"><ele>466.307007</ele><time>2009-06-09T16:21:29Z</time></trkpt>
<trkpt lat="46.15470505" lon="7.14493084"><ele>466.613007</ele><time>2009-06-09T16:21:35Z</time></trkpt>
<trkpt lat="46.15458679" lon="7.14453888"><ele>467.808014</ele><time>2009-06-09T16:21:44Z</time></trkpt>
<trkpt lat="46.15439606" lon="7.14408112"><ele>470.131012</ele><time>2009-06-09T16:21:55Z</time></trkpt>
<trkpt lat="46.15427780" lon="7.14375496"><ele>471.53299</ele><time>2009-06-09T16:22:03Z</time></trkpt>
<trkpt lat="46.15410233" lon="7.14353800"><ele>473.471008</ele><time>2009-06-09T16:22:11Z</time></trkpt>
<trkpt lat="46.15401840" lon="7.14342499"><ele>473.976013</ele><time>2009-06-09T16:22:16Z</time></trkpt>
<trkpt lat="46.15403748" lon="7.14324808"><ele>474.348969</ele><time>2009-06-09T16:22:22Z</time></trkpt>
<trkpt lat="46.15409851" lon="7.14304590"><ele>475.415009</ele><time>2009-06-09T16:22:30Z</time></trkpt>
<trkpt lat="46.15418625" lon="7.14278412"><ele>478.041992</ele><time>2009-06-09T16:22:42Z</time></trkpt>
<trkpt lat="46.15425873" lon="7.14257097"><ele>480.161011</ele><time>2009-06-09T16:22:52Z</time></trkpt>
<trkpt lat="46.15426636" lon="7.14255095"><ele>480.453003</ele><time>2009-06-09T16:22:53Z</time></trkpt>
<trkpt lat="46.15432739" lon="7.14242792"><ele>481.889038</ele><time>2009-06-09T16:22:59Z</time></trkpt>
<trkpt lat="46.15438461" lon="7.14223719"><ele>483.354004</ele><time>2009-06-09T16:23:07Z</time></trkpt>
<trkpt lat="46.15444946" lon="7.14205980"><ele>485.707977</ele><time>2009-06-09T16:23:15Z</time></trkpt>
<trkpt lat="46.15456772" lon="7.14185286"><ele>488.460022</ele><time>2009-06-09T16:23:26Z</time></trkpt>
<trkpt lat="46.15465927" lon="7.14165020"><ele>490.839996</ele><time>2009-06-09T16:23:36Z</time></trkpt>
<trkpt lat="46.15468597" lon="7.14146900"><ele>491.699982</ele><time>2009-06-09T16:23:44Z</time></trkpt>
<trkpt lat="46.15475082" lon="7.14129782"><ele>493.51001</ele><time>2009-06-09T16:23:52Z</time></trkpt>
<trkpt lat="46.15481949" lon="7.14114618"><ele>494.549988</ele><time>2009-06-09T16:24:00Z</time></trkpt>
<trkpt lat="46.15488052" lon="7.14097977"><ele>496.531006</ele><time>2009-06-09T16:24:09Z</time></trkpt>
<trkpt lat="46.15487671" lon="7.14080095"><ele>497.497955</ele><time>2009-06-09T16:24:16Z</time></trkpt>
<trkpt lat="46.15481567" lon="7.14062881"><ele>498.26297</ele><time>2009-06-09T16:24:23Z</time></trkpt>
<trkpt lat="46.15477371" lon="7.14046478"><ele>498.803009</ele><time>2009-06-09T16:24:31Z</time></trkpt>
<trkpt lat="46.15478897" lon="7.14027214"><ele>499.671021</ele><time>2009-06-09T16:24:40Z</time></trkpt>
<trkpt lat="46.15478897" lon="7.14010191"><ele>500.53299</ele><time>2009-06-09T16:24:48Z</time></trkpt>
<trkpt lat="46.15479279" lon="7.13991213"><ele>501.890991</ele><time>2009-06-09T16:24:57Z</time></trkpt>
<trkpt lat="46.15480423" lon="7.13975191"><ele>502.667999</ele><time>2009-06-09T16:25:04Z</time></trkpt>
<trkpt lat="46.15481949" lon="7.13961697"><ele>503.740021</ele><time>2009-06-09T16:25:10Z</time></trkpt>
<trkpt lat="46.15482712" lon="7.13949394"><ele>505.183014</ele><time>2009-06-09T16:25:16Z</time></trkpt>
<trkpt lat="46.15475845" lon="7.13932085"><ele>506.101013</ele><time>2009-06-09T16:25:23Z</time></trkpt>
<trkpt lat="46.15465927" lon="7.13904715"><ele>506.742004</ele><time>2009-06-09T16:25:31Z</time></trkpt>
<trkpt lat="46.15457153" lon="7.13878489"><ele>508.334991</ele><time>2009-06-09T16:25:40Z</time></trkpt>
<trkpt lat="46.15451431" lon="7.13853121"><ele>510.071014</ele><time>2009-06-09T16:25:48Z</time></trkpt>
<trkpt lat="46.15440369" lon="7.13829088"><ele>510.105011</ele><time>2009-06-09T16:25:56Z</time></trkpt>
<trkpt lat="46.15429306" lon="7.13811922"><ele>510.027039</ele><time>2009-06-09T16:26:02Z</time></trkpt>
<trkpt lat="46.15420532" lon="7.13797712"><ele>510.378998</ele><time>2009-06-09T16:26:08Z</time></trkpt>
<trkpt lat="46.15416336" lon="7.13790083"><ele>510.105011</ele><time>2009-06-09T16:26:13Z</time></trkpt>
<trkpt lat="46.15416336" lon="7.13790083"><ele>510.061005</ele><time>2009-06-09T16:26:14Z</time></trkpt>
<trkpt lat="46.15410614" lon="7.13783407"><ele>508.729034</ele><time>2009-06-09T16:27:03Z</time></trkpt>
<trkpt lat="46.15400696" lon="7.13763380"><ele>509.257996</ele><time>2009-06-09T16:27:09Z</time></trkpt>
<trkpt lat="46.15396881" lon="7.13739109"><ele>509.205994</ele><time>2009-06-09T16:27:14Z</time></trkpt>
<trkpt lat="46.15393829" lon="7.13702822"><ele>508.928009</ele><time>2009-06-09T16:27:21Z</time></trkpt>
<trkpt lat="46.15393448" lon="7.13696814"><ele>508.906006</ele><time>2009-06-09T16:27:25Z</time></trkpt>
<trkpt lat="46.15376282" lon="7.13700390"><ele>505.097992</ele><time>2009-06-09T16:27:37Z</time></trkpt>
<trkpt lat="46.15373993" lon="7.13698721"><ele>504.463989</ele><time>2009-06-09T16:27:40Z</time></trkpt>
<trkpt lat="46.15373611" lon="7.13687801"><ele>504.497009</ele><time>2009-06-09T16:27:45Z</time></trkpt>
<trkpt lat="46.15371704" lon="7.13678312"><ele>503.849976</ele><time>2009-06-09T16:27:49Z</time></trkpt>
<trkpt lat="46.15371323" lon="7.13667822"><ele>503.570007</ele><time>2009-06-09T16:27:53Z</time></trkpt>
<trkpt lat="46.15351486" lon="7.13659811"><ele>500.955994</ele><time>2009-06-09T16:27:58Z</time></trkpt>
<trkpt lat="46.15341949" lon="7.13655996"><ele>499.854004</ele><time>2009-06-09T16:28:01Z</time></trkpt>
<trkpt lat="46.15341187" lon="7.13655710"><ele>499.472992</ele><time>2009-06-09T16:28:03Z</time></trkpt>
<trkpt lat="46.15339279" lon="7.13654518"><ele>499.445007</ele><time>2009-06-09T16:28:09Z</time></trkpt>
<trkpt lat="46.15341568" lon="7.13647509"><ele>499.747009</ele><time>2009-06-09T16:28:16Z</time></trkpt>
<trkpt lat="46.15341949" lon="7.13646221"><ele>499.811005</ele><time>2009-06-09T16:28:17Z</time></trkpt>
<trkpt lat="46.15343857" lon="7.13628817"><ele>500.252045</ele><time>2009-06-09T16:28:25Z</time></trkpt>
<trkpt lat="46.15346146" lon="7.13612700"><ele>500.721985</ele><time>2009-06-09T16:28:32Z</time></trkpt>
<trkpt lat="46.15347672" lon="7.13599300"><ele>501.194</ele><time>2009-06-09T16:28:39Z</time></trkpt>
<trkpt lat="46.15342712" lon="7.13585520"><ele>503.171997</ele><time>2009-06-09T16:28:46Z</time></trkpt>
<trkpt lat="46.15334702" lon="7.13575888"><ele>505.312958</ele><time>2009-06-09T16:28:53Z</time></trkpt>
<trkpt lat="46.15320969" lon="7.13570023"><ele>507.378998</ele><time>2009-06-09T16:29:02Z</time></trkpt>
<trkpt lat="46.15306473" lon="7.13561487"><ele>508.441956</ele><time>2009-06-09T16:29:11Z</time></trkpt>
<trkpt lat="46.15291977" lon="7.13554382"><ele>509.318024</ele><time>2009-06-09T16:29:18Z</time></trkpt>
<trkpt lat="46.15279388" lon="7.13549805"><ele>510.437012</ele><time>2009-06-09T16:29:25Z</time></trkpt>
<trkpt lat="46.15263748" lon="7.13544893"><ele>512.559998</ele><time>2009-06-09T16:29:35Z</time></trkpt>
<trkpt lat="46.15249252" lon="7.13535881"><ele>514.924011</ele><time>2009-06-09T16:29:45Z</time></trkpt>
<trkpt lat="46.15242004" lon="7.13524199"><ele>516.411011</ele><time>2009-06-09T16:29:52Z</time></trkpt>
<trkpt lat="46.15229416" lon="7.13509703"><ele>520.901001</ele><time>2009-06-09T16:30:03Z</time></trkpt>
<trkpt lat="46.15219116" lon="7.13498211"><ele>523.619995</ele><time>2009-06-09T16:30:12Z</time></trkpt>
<trkpt lat="46.15208054" lon="7.13484383"><ele>526.640015</ele><time>2009-06-09T16:30:22Z</time></trkpt>
<trkpt lat="46.15203857" lon="7.13477707"><ele>527.596008</ele><time>2009-06-09T16:30:26Z</time></trkpt>
<trkpt lat="46.15198517" lon="7.13466692"><ele>526.630005</ele><time>2009-06-09T16:30:32Z</time></trkpt>
<trkpt lat="46.15190887" lon="7.13455915"><ele>527.012024</ele><time>2009-06-09T16:30:38Z</time></trkpt>
<trkpt lat="46.15185165" lon="7.13445187"><ele>527.992004</ele><time>2009-06-09T16:30:44Z</time></trkpt>
<trkpt lat="46.15179062" lon="7.13435316"><ele>529.085999</ele><time>2009-06-09T16:30:52Z</time></trkpt>
<trkpt lat="46.15171432" lon="7.13423920"><ele>531.271973</ele><time>2009-06-09T16:31:01Z</time></trkpt>
<trkpt lat="46.15164948" lon="7.13417196"><ele>532.572021</ele><time>2009-06-09T16:31:08Z</time></trkpt>
<trkpt lat="46.15162659" lon="7.13416004"><ele>533.112976</ele><time>2009-06-09T16:31:10Z</time></trkpt>
<trkpt lat="46.15158081" lon="7.13414097"><ele>534.742004</ele><time>2009-06-09T16:31:14Z</time></trkpt>
<trkpt lat="46.15155411" lon="7.13402510"><ele>537.432007</ele><time>2009-06-09T16:31:22Z</time></trkpt>
<trkpt lat="46.15155792" lon="7.13397312"><ele>538.643982</ele><time>2009-06-09T16:31:25Z</time></trkpt>
<trkpt lat="46.15154266" lon="7.13390207"><ele>540.354004</ele><time>2009-06-09T16:31:30Z</time></trkpt>
<trkpt lat="46.15150070" lon="7.13377619"><ele>543.284973</ele><time>2009-06-09T16:31:40Z</time></trkpt>
<trkpt lat="46.15146637" lon="7.13369513"><ele>546.03302</ele><time>2009-06-09T16:31:47Z</time></trkpt>
<trkpt lat="46.15143204" lon="7.13357687"><ele>549.505005</ele><time>2009-06-09T16:31:56Z</time></trkpt>
<trkpt lat="46.15142059" lon="7.13347816"><ele>550.768982</ele><time>2009-06-09T16:32:02Z</time></trkpt>
<trkpt lat="46.15142441" lon="7.13340187"><ele>551.377014</ele><time>2009-06-09T16:32:08Z</time></trkpt>
<trkpt lat="46.15145111" lon="7.13336802"><ele>551.70697</ele><time>2009-06-09T16:32:12Z</time></trkpt>
<trkpt lat="46.15148926" lon="7.13329077"><ele>553.218018</ele><time>2009-06-09T16:32:20Z</time></trkpt>
<trkpt lat="46.15148926" lon="7.13328886"><ele>553.473022</ele><time>2009-06-09T16:32:21Z</time></trkpt>
<trkpt lat="46.15153503" lon="7.13319492"><ele>559.497009</ele><time>2009-06-09T16:33:14Z</time></trkpt>
<trkpt lat="46.15159225" lon="7.13314390"><ele>562.146973</ele><time>2009-06-09T16:33:23Z</time></trkpt>
<trkpt lat="46.15165710" lon="7.13309813"><ele>565.357971</ele><time>2009-06-09T16:33:33Z</time></trkpt>
<trkpt lat="46.15167618" lon="7.13307095"><ele>564.80603</ele><time>2009-06-09T16:33:38Z</time></trkpt>
<trkpt lat="46.15168381" lon="7.13305616"><ele>564.299011</ele><time>2009-06-09T16:33:42Z</time></trkpt>
<trkpt lat="46.15171432" lon="7.13307381"><ele>562.015991</ele><time>2009-06-09T16:33:57Z</time></trkpt>
<trkpt lat="46.15174866" lon="7.13306808"><ele>563.021973</ele><time>2009-06-09T16:34:02Z</time></trkpt>
<trkpt lat="46.15178680" lon="7.13306379"><ele>564.541016</ele><time>2009-06-09T16:34:10Z</time></trkpt>
<trkpt lat="46.15185547" lon="7.13307095"><ele>566.97699</ele><time>2009-06-09T16:34:19Z</time></trkpt>
<trkpt lat="46.15192032" lon="7.13307190"><ele>569.848022</ele><time>2009-06-09T16:34:29Z</time></trkpt>
<trkpt lat="46.15199661" lon="7.13307905"><ele>571.95697</ele><time>2009-06-09T16:34:39Z</time></trkpt>
<trkpt lat="46.15203094" lon="7.13307619"><ele>572.846985</ele><time>2009-06-09T16:34:44Z</time></trkpt>
<trkpt lat="46.15209198" lon="7.13303518"><ele>574.586975</ele><time>2009-06-09T16:34:53Z</time></trkpt>
<trkpt lat="46.15211868" lon="7.13298178"><ele>575.737</ele><time>2009-06-09T16:34:59Z</time></trkpt>
<trkpt lat="46.15215683" lon="7.13288212"><ele>577.786987</ele><time>2009-06-09T16:35:09Z</time></trkpt>
<trkpt lat="46.15219879" lon="7.13276196"><ele>580.458008</ele><time>2009-06-09T16:35:20Z</time></trkpt>
<trkpt lat="46.15222549" lon="7.13270521"><ele>581.968994</ele><time>2009-06-09T16:35:28Z</time></trkpt>
<trkpt lat="46.15225601" lon="7.13267517"><ele>582.577026</ele><time>2009-06-09T16:35:41Z</time></trkpt>
<trkpt lat="46.15230942" lon="7.13265181"><ele>584.528015</ele><time>2009-06-09T16:35:51Z</time></trkpt>
<trkpt lat="46.15230942" lon="7.13265085"><ele>584.698975</ele><time>2009-06-09T16:35:52Z</time></trkpt>
<trkpt lat="46.15243530" lon="7.13263893"><ele>588.588013</ele><time>2009-06-09T16:36:42Z</time></trkpt>
<trkpt lat="46.15250015" lon="7.13260508"><ele>590.439026</ele><time>2009-06-09T16:36:50Z</time></trkpt>
<trkpt lat="46.15251923" lon="7.13252211"><ele>591.445984</ele><time>2009-06-09T16:36:59Z</time></trkpt>
<trkpt lat="46.15252304" lon="7.13251305"><ele>591.486023</ele><time>2009-06-09T16:37:00Z</time></trkpt>
<trkpt lat="46.15252304" lon="7.13249016"><ele>591.505005</ele><time>2009-06-09T16:37:02Z</time></trkpt>
<trkpt lat="46.15253830" lon="7.13233614"><ele>590.744019</ele><time>2009-06-09T16:37:09Z</time></trkpt>
<trkpt lat="46.15254974" lon="7.13223791"><ele>590.062012</ele><time>2009-06-09T16:37:11Z</time></trkpt>
<trkpt lat="46.15262222" lon="7.13174820"><ele>589.304016</ele><time>2009-06-09T16:37:18Z</time></trkpt>
<trkpt lat="46.15263748" lon="7.13160610"><ele>590.234985</ele><time>2009-06-09T16:37:22Z</time></trkpt>
<trkpt lat="46.15263367" lon="7.13154411"><ele>591.185974</ele><time>2009-06-09T16:37:26Z</time></trkpt>
<trkpt lat="46.15263748" lon="7.13141918"><ele>592.664001</ele><time>2009-06-09T16:37:34Z</time></trkpt>
<trkpt lat="46.15263367" lon="7.13129997"><ele>594.286987</ele><time>2009-06-09T16:37:42Z</time></trkpt>
<trkpt lat="46.15255737" lon="7.13114882"><ele>595.906982</ele><time>2009-06-09T16:37:52Z</time></trkpt>
<trkpt lat="46.15248108" lon="7.13099098"><ele>597.103027</ele><time>2009-06-09T16:38:01Z</time></trkpt>
<trkpt lat="46.15238953" lon="7.13082218"><ele>599.252014</ele><time>2009-06-09T16:38:11Z</time></trkpt>
<trkpt lat="46.15234375" lon="7.13069010"><ele>600.197998</ele><time>2009-06-09T16:38:18Z</time></trkpt>
<trkpt lat="46.15230560" lon="7.13053608"><ele>600.601013</ele><time>2009-06-09T16:38:26Z</time></trkpt>
<trkpt lat="46.15231705" lon="7.13037205"><ele>601.719971</ele><time>2009-06-09T16:38:36Z</time></trkpt>
<trkpt lat="46.15230560" lon="7.13023901"><ele>602.060974</ele><time>2009-06-09T16:38:44Z</time></trkpt>
<trkpt lat="46.15227127" lon="7.13010406"><ele>603.289001</ele><time>2009-06-09T16:38:52Z</time></trkpt>
<trkpt lat="46.15228653" lon="7.12994814"><ele>606.216003</ele><time>2009-06-09T16:39:00Z</time></trkpt>
<trkpt lat="46.15228271" lon="7.12979317"><ele>608.898987</ele><time>2009-06-09T16:39:07Z</time></trkpt>
<trkpt lat="46.15222931" lon="7.12966108"><ele>611.106018</ele><time>2009-06-09T16:39:15Z</time></trkpt>
<trkpt lat="46.15221024" lon="7.12959480"><ele>611.963013</ele><time>2009-06-09T16:39:19Z</time></trkpt>
<trkpt lat="46.15212631" lon="7.12947083"><ele>613.041992</ele><time>2009-06-09T16:39:28Z</time></trkpt>
<trkpt lat="46.15209579" lon="7.12941980"><ele>612.997009</ele><time>2009-06-09T16:39:31Z</time></trkpt>
<trkpt lat="46.15210342" lon="7.12930822"><ele>611.940002</ele><time>2009-06-09T16:39:39Z</time></trkpt>
<trkpt lat="46.15210724" lon="7.12930822"><ele>611.901001</ele><time>2009-06-09T16:39:40Z</time></trkpt>
<trkpt lat="46.15217972" lon="7.12928677"><ele>611.893982</ele><time>2009-06-09T16:40:18Z</time></trkpt>
<trkpt lat="46.15216827" lon="7.12916183"><ele>610.320007</ele><time>2009-06-09T16:40:21Z</time></trkpt>
<trkpt lat="46.15209198" lon="7.12886906"><ele>609.36499</ele><time>2009-06-09T16:40:26Z</time></trkpt>
<trkpt lat="46.15209198" lon="7.12886477"><ele>609.335022</ele><time>2009-06-09T16:40:28Z</time></trkpt>
<trkpt lat="46.15212631" lon="7.12879086"><ele>612.057983</ele><time>2009-06-09T16:40:41Z</time></trkpt>
<trkpt lat="46.15214920" lon="7.12873697"><ele>614.551025</ele><time>2009-06-09T16:40:49Z</time></trkpt>
<trkpt lat="46.15215302" lon="7.12869978"><ele>615.346008</ele><time>2009-06-09T16:40:54Z</time></trkpt>
<trkpt lat="46.15214157" lon="7.12862110"><ele>615.835999</ele><time>2009-06-09T16:41:02Z</time></trkpt>
<trkpt lat="46.15211487" lon="7.12848806"><ele>615.330017</ele><time>2009-06-09T16:41:07Z</time></trkpt>
<trkpt lat="46.15205002" lon="7.12826300"><ele>615.788025</ele><time>2009-06-09T16:41:13Z</time></trkpt>
<trkpt lat="46.15198135" lon="7.12809706"><ele>617.140015</ele><time>2009-06-09T16:41:21Z</time></trkpt>
<trkpt lat="46.15186310" lon="7.12791681"><ele>618.255981</ele><time>2009-06-09T16:41:30Z</time></trkpt>
<trkpt lat="46.15175247" lon="7.12775993"><ele>620.18103</ele><time>2009-06-09T16:41:38Z</time></trkpt>
<trkpt lat="46.15166855" lon="7.12765980"><ele>621.471985</ele><time>2009-06-09T16:41:45Z</time></trkpt>
<trkpt lat="46.15162277" lon="7.12758780"><ele>621.546021</ele><time>2009-06-09T16:41:51Z</time></trkpt>
<trkpt lat="46.15162277" lon="7.12758684"><ele>621.583984</ele><time>2009-06-09T16:41:52Z</time></trkpt>
<trkpt lat="46.15170288" lon="7.12754107"><ele>623.276978</ele><time>2009-06-09T16:42:13Z</time></trkpt>
<trkpt lat="46.15172195" lon="7.12751293"><ele>623.724976</ele><time>2009-06-09T16:42:19Z</time></trkpt>
<trkpt lat="46.15174484" lon="7.12728310"><ele>623.169983</ele><time>2009-06-09T16:42:28Z</time></trkpt>
<trkpt lat="46.15174103" lon="7.12705421"><ele>623.40802</ele><time>2009-06-09T16:42:34Z</time></trkpt>
<trkpt lat="46.15166092" lon="7.12689686"><ele>623.185974</ele><time>2009-06-09T16:42:39Z</time></trkpt>
<trkpt lat="46.15158081" lon="7.12674713"><ele>623.820007</ele><time>2009-06-09T16:42:44Z</time></trkpt>
<trkpt lat="46.15149307" lon="7.12667608"><ele>623.982971</ele><time>2009-06-09T16:42:49Z</time></trkpt>
<trkpt lat="46.15141678" lon="7.12657499"><ele>624.242004</ele><time>2009-06-09T16:42:55Z</time></trkpt>
<trkpt lat="46.15140533" lon="7.12654495"><ele>624.182983</ele><time>2009-06-09T16:42:57Z</time></trkpt>
<trkpt lat="46.15142441" lon="7.12640810"><ele>625.21698</ele><time>2009-06-09T16:43:03Z</time></trkpt>
<trkpt lat="46.15144730" lon="7.12629986"><ele>624.203003</ele><time>2009-06-09T16:43:07Z</time></trkpt>
<trkpt lat="46.15138626" lon="7.12626123"><ele>623</ele><time>2009-06-09T16:43:12Z</time></trkpt>
<trkpt lat="46.15137863" lon="7.12625504"><ele>622.732971</ele><time>2009-06-09T16:43:15Z</time></trkpt>
<trkpt lat="46.15137863" lon="7.12614012"><ele>621.294006</ele><time>2009-06-09T16:43:28Z</time></trkpt>
<trkpt lat="46.15142441" lon="7.12599993"><ele>617.937988</ele><time>2009-06-09T16:43:35Z</time></trkpt>
<trkpt lat="46.15142441" lon="7.12593985"><ele>616.853027</ele><time>2009-06-09T16:43:38Z</time></trkpt>
<trkpt lat="46.15135956" lon="7.12584496"><ele>614.413025</ele><time>2009-06-09T16:43:42Z</time></trkpt>
<trkpt lat="46.15121841" lon="7.12570715"><ele>609.557983</ele><time>2009-06-09T16:43:47Z</time></trkpt>
<trkpt lat="46.15100098" lon="7.12552214"><ele>604.659973</ele><time>2009-06-09T16:43:50Z</time></trkpt>
<trkpt lat="46.15092468" lon="7.12546015"><ele>603.276001</ele><time>2009-06-09T16:43:51Z</time></trkpt>
<trkpt lat="46.15069962" lon="7.12538624"><ele>599.21698</ele><time>2009-06-09T16:43:54Z</time></trkpt>
<trkpt lat="46.15042877" lon="7.12525511"><ele>595.349976</ele><time>2009-06-09T16:43:58Z</time></trkpt>
<trkpt lat="46.15019989" lon="7.12509394"><ele>592.827026</ele><time>2009-06-09T16:44:01Z</time></trkpt>
<trkpt lat="46.14998627" lon="7.12498379"><ele>590.120972</ele><time>2009-06-09T16:44:06Z</time></trkpt>
<trkpt lat="46.14995956" lon="7.12496805"><ele>589.499023</ele><time>2009-06-09T16:44:08Z</time></trkpt>
<trkpt lat="46.14988327" lon="7.12486887"><ele>589.244995</ele><time>2009-06-09T16:44:13Z</time></trkpt>
<trkpt lat="46.14988327" lon="7.12486887"><ele>589.39502</ele><time>2009-06-09T16:44:14Z</time></trkpt>
<trkpt lat="46.14992523" lon="7.12496185"><ele>587.856995</ele><time>2009-06-09T16:44:27Z</time></trkpt>
<trkpt lat="46.14986038" lon="7.12492895"><ele>586.289001</ele><time>2009-06-09T16:44:30Z</time></trkpt>
<trkpt lat="46.14965820" lon="7.12474823"><ele>582.36499</ele><time>2009-06-09T16:44:34Z</time></trkpt>
<trkpt lat="46.14960861" lon="7.12469578"><ele>581.200012</ele><time>2009-06-09T16:44:35Z</time></trkpt>
<trkpt lat="46.14948273" lon="7.12446594"><ele>577.218994</ele><time>2009-06-09T16:44:38Z</time></trkpt>
<trkpt lat="46.14931870" lon="7.12433910"><ele>575.232971</ele><time>2009-06-09T16:44:41Z</time></trkpt>
<trkpt lat="46.14920044" lon="7.12427902"><ele>573.776978</ele><time>2009-06-09T16:44:44Z</time></trkpt>
<trkpt lat="46.14916611" lon="7.12422323"><ele>573.184998</ele><time>2009-06-09T16:44:45Z</time></trkpt>
<trkpt lat="46.14905930" lon="7.12399483"><ele>570.625</ele><time>2009-06-09T16:44:48Z</time></trkpt>
<trkpt lat="46.14877701" lon="7.12372208"><ele>567.25</ele><time>2009-06-09T16:44:52Z</time></trkpt>
<trkpt lat="46.14862442" lon="7.12365484"><ele>566.901001</ele><time>2009-06-09T16:44:54Z</time></trkpt>
<trkpt lat="46.14851379" lon="7.12350321"><ele>566.601013</ele><time>2009-06-09T16:44:57Z</time></trkpt>
<trkpt lat="46.14849091" lon="7.12344408"><ele>567.940002</ele><time>2009-06-09T16:45:00Z</time></trkpt>
<trkpt lat="46.14850235" lon="7.12337017"><ele>569.43103</ele><time>2009-06-09T16:45:04Z</time></trkpt>
<trkpt lat="46.14852142" lon="7.12334490"><ele>569.940002</ele><time>2009-06-09T16:45:06Z</time></trkpt>
<trkpt lat="46.14860916" lon="7.12336922"><ele>572.802979</ele><time>2009-06-09T16:45:13Z</time></trkpt>
<trkpt lat="46.14871979" lon="7.12338018"><ele>576.271973</ele><time>2009-06-09T16:45:21Z</time></trkpt>
<trkpt lat="46.14880371" lon="7.12331676"><ele>578.982971</ele><time>2009-06-09T16:45:28Z</time></trkpt>
<trkpt lat="46.14878464" lon="7.12324190"><ele>580.625977</ele><time>2009-06-09T16:45:33Z</time></trkpt>
<trkpt lat="46.14875793" lon="7.12323809"><ele>580.958008</ele><time>2009-06-09T16:45:35Z</time></trkpt>
<trkpt lat="46.14864731" lon="7.12319994"><ele>582.810974</ele><time>2009-06-09T16:45:44Z</time></trkpt>
<trkpt lat="46.14861679" lon="7.12310600"><ele>584.401001</ele><time>2009-06-09T16:45:50Z</time></trkpt>
<trkpt lat="46.14863586" lon="7.12302685"><ele>585.286987</ele><time>2009-06-09T16:45:55Z</time></trkpt>
<trkpt lat="46.14865875" lon="7.12295389"><ele>586.887024</ele><time>2009-06-09T16:46:00Z</time></trkpt>
<trkpt lat="46.14867401" lon="7.12286806"><ele>588.916992</ele><time>2009-06-09T16:46:06Z</time></trkpt>
<trkpt lat="46.14869308" lon="7.12283278"><ele>589.515991</ele><time>2009-06-09T16:46:09Z</time></trkpt>
<trkpt lat="46.14871979" lon="7.12278986"><ele>589.924988</ele><time>2009-06-09T16:46:15Z</time></trkpt>
<trkpt lat="46.14873886" lon="7.12288380"><ele>592.893005</ele><time>2009-06-09T16:46:23Z</time></trkpt>
<trkpt lat="46.14873505" lon="7.12290001"><ele>593.221008</ele><time>2009-06-09T16:46:24Z</time></trkpt>
<trkpt lat="46.14873123" lon="7.12293386"><ele>593.119019</ele><time>2009-06-09T16:46:26Z</time></trkpt>
<trkpt lat="46.14875031" lon="7.12303591"><ele>593.560974</ele><time>2009-06-09T16:46:32Z</time></trkpt>
<trkpt lat="46.14878082" lon="7.12305021"><ele>594.265015</ele><time>2009-06-09T16:46:38Z</time></trkpt>
<trkpt lat="46.14882278" lon="7.12296200"><ele>598.221008</ele><time>2009-06-09T16:47:33Z</time></trkpt>
<trkpt lat="46.14882660" lon="7.12287903"><ele>599.473022</ele><time>2009-06-09T16:47:38Z</time></trkpt>
<trkpt lat="46.14883041" lon="7.12282801"><ele>600.484985</ele><time>2009-06-09T16:47:41Z</time></trkpt>
<trkpt lat="46.14889145" lon="7.12278795"><ele>602.583984</ele><time>2009-06-09T16:47:48Z</time></trkpt>
<trkpt lat="46.14893723" lon="7.12285089"><ele>603.961975</ele><time>2009-06-09T16:47:54Z</time></trkpt>
<trkpt lat="46.14896011" lon="7.12287283"><ele>604.669006</ele><time>2009-06-09T16:47:58Z</time></trkpt>
<trkpt lat="46.14898300" lon="7.12288380"><ele>604.708984</ele><time>2009-06-09T16:48:05Z</time></trkpt>
<trkpt lat="46.14901733" lon="7.12287807"><ele>605.661011</ele><time>2009-06-09T16:48:11Z</time></trkpt>
<trkpt lat="46.14903641" lon="7.12286901"><ele>606.276001</ele><time>2009-06-09T16:48:15Z</time></trkpt>
<trkpt lat="46.14904022" lon="7.12286806"><ele>606.38501</ele><time>2009-06-09T16:48:17Z</time></trkpt>
<trkpt lat="46.14906311" lon="7.12286186"><ele>607.007996</ele><time>2009-06-09T16:48:25Z</time></trkpt>
<trkpt lat="46.14914322" lon="7.12284994"><ele>608.122009</ele><time>2009-06-09T16:48:48Z</time></trkpt>
<trkpt lat="46.14923859" lon="7.12285280"><ele>610.038025</ele><time>2009-06-09T16:48:59Z</time></trkpt>
<trkpt lat="46.14931107" lon="7.12286711"><ele>611.739014</ele><time>2009-06-09T16:49:08Z</time></trkpt>
<trkpt lat="46.14938736" lon="7.12288904"><ele>613.71698</ele><time>2009-06-09T16:49:17Z</time></trkpt>
<trkpt lat="46.14945602" lon="7.12291479"><ele>615.762024</ele><time>2009-06-09T16:49:25Z</time></trkpt>
<trkpt lat="46.14953995" lon="7.12292814"><ele>617.421021</ele><time>2009-06-09T16:49:35Z</time></trkpt>
<trkpt lat="46.14960861" lon="7.12288618"><ele>619.099976</ele><time>2009-06-09T16:49:46Z</time></trkpt>
<trkpt lat="46.14963913" lon="7.12286520"><ele>620.033997</ele><time>2009-06-09T16:49:52Z</time></trkpt>
<trkpt lat="46.14968109" lon="7.12284994"><ele>621.140015</ele><time>2009-06-09T16:49:59Z</time></trkpt>
<trkpt lat="46.14975739" lon="7.12285900"><ele>622.184998</ele><time>2009-06-09T16:50:09Z</time></trkpt>
<trkpt lat="46.14982224" lon="7.12288618"><ele>624.586975</ele><time>2009-06-09T16:50:18Z</time></trkpt>
<trkpt lat="46.14989090" lon="7.12290812"><ele>627.778015</ele><time>2009-06-09T16:50:27Z</time></trkpt>
<trkpt lat="46.14997864" lon="7.12290812"><ele>629.462036</ele><time>2009-06-09T16:50:36Z</time></trkpt>
<trkpt lat="46.15005875" lon="7.12288713"><ele>631.314026</ele><time>2009-06-09T16:50:46Z</time></trkpt>
<trkpt lat="46.15012360" lon="7.12284184"><ele>632.47699</ele><time>2009-06-09T16:50:57Z</time></trkpt>
<trkpt lat="46.15013123" lon="7.12283421"><ele>632.151062</ele><time>2009-06-09T16:50:59Z</time></trkpt>
<trkpt lat="46.15017319" lon="7.12282705"><ele>633.432983</ele><time>2009-06-09T16:51:13Z</time></trkpt>
<trkpt lat="46.15019226" lon="7.12281322"><ele>634.414978</ele><time>2009-06-09T16:51:21Z</time></trkpt>
<trkpt lat="46.15009689" lon="7.12277222"><ele>634.52301</ele><time>2009-06-09T16:51:32Z</time></trkpt>
<trkpt lat="46.15009308" lon="7.12276602"><ele>634.435974</ele><time>2009-06-09T16:51:34Z</time></trkpt>
<trkpt lat="46.15002823" lon="7.12270212"><ele>632.942993</ele><time>2009-06-09T16:53:27Z</time></trkpt>
<trkpt lat="46.14999390" lon="7.12269020"><ele>632.408997</ele><time>2009-06-09T16:53:28Z</time></trkpt>
<trkpt lat="46.14969635" lon="7.12264585"><ele>629.864929</ele><time>2009-06-09T16:53:33Z</time></trkpt>
<trkpt lat="46.14940262" lon="7.12245893"><ele>626.295044</ele><time>2009-06-09T16:53:37Z</time></trkpt>
<trkpt lat="46.14936829" lon="7.12212610"><ele>623.208984</ele><time>2009-06-09T16:53:40Z</time></trkpt>
<trkpt lat="46.14943314" lon="7.12172699"><ele>620.382996</ele><time>2009-06-09T16:53:43Z</time></trkpt>
<trkpt lat="46.14937210" lon="7.12116194"><ele>615.916016</ele><time>2009-06-09T16:53:47Z</time></trkpt>
<trkpt lat="46.14920425" lon="7.12096977"><ele>613.463013</ele><time>2009-06-09T16:53:49Z</time></trkpt>
<trkpt lat="46.14885712" lon="7.12088299"><ele>609.711975</ele><time>2009-06-09T16:53:52Z</time></trkpt>
<trkpt lat="46.14848709" lon="7.12083197"><ele>606.362976</ele><time>2009-06-09T16:53:55Z</time></trkpt>
<trkpt lat="46.14823914" lon="7.12074089"><ele>603.54303</ele><time>2009-06-09T16:53:57Z</time></trkpt>
<trkpt lat="46.14786148" lon="7.12043095"><ele>599.468994</ele><time>2009-06-09T16:54:01Z</time></trkpt>
<trkpt lat="46.14762878" lon="7.12006712"><ele>595.856995</ele><time>2009-06-09T16:54:04Z</time></trkpt>
<trkpt lat="46.14725113" lon="7.11914587"><ele>587.40802</ele><time>2009-06-09T16:54:10Z</time></trkpt>
<trkpt lat="46.14680862" lon="7.11799717"><ele>577.765015</ele><time>2009-06-09T16:54:17Z</time></trkpt>
<trkpt lat="46.14641571" lon="7.11720514"><ele>570.742981</ele><time>2009-06-09T16:54:22Z</time></trkpt>
<trkpt lat="46.14632416" lon="7.11705112"><ele>569.299011</ele><time>2009-06-09T16:54:23Z</time></trkpt>
<trkpt lat="46.14598465" lon="7.11671209"><ele>564.64502</ele><time>2009-06-09T16:54:26Z</time></trkpt>
<trkpt lat="46.14562988" lon="7.11660099"><ele>560.547974</ele><time>2009-06-09T16:54:29Z</time></trkpt>
<trkpt lat="46.14532852" lon="7.11646318"><ele>556.197998</ele><time>2009-06-09T16:54:33Z</time></trkpt>
<trkpt lat="46.14524460" lon="7.11611080"><ele>553.450989</ele><time>2009-06-09T16:54:36Z</time></trkpt>
<trkpt lat="46.14513779" lon="7.11564207"><ele>549.554016</ele><time>2009-06-09T16:54:40Z</time></trkpt>
<trkpt lat="46.14495850" lon="7.11554909"><ele>547.611023</ele><time>2009-06-09T16:54:42Z</time></trkpt>
<trkpt lat="46.14470673" lon="7.11538982"><ele>544.612976</ele><time>2009-06-09T16:54:45Z</time></trkpt>
<trkpt lat="46.14456558" lon="7.11521578"><ele>542.666992</ele><time>2009-06-09T16:54:47Z</time></trkpt>
<trkpt lat="46.14445877" lon="7.11493301"><ele>540.653015</ele><time>2009-06-09T16:54:50Z</time></trkpt>
<trkpt lat="46.14444351" lon="7.11484194"><ele>540.700012</ele><time>2009-06-09T16:54:51Z</time></trkpt>
<trkpt lat="46.14429855" lon="7.11454296"><ele>542.867981</ele><time>2009-06-09T16:54:57Z</time></trkpt>
<trkpt lat="46.14423752" lon="7.11454391"><ele>543.728027</ele><time>2009-06-09T16:54:59Z</time></trkpt>
<trkpt lat="46.14411545" lon="7.11461782"><ele>545.91803</ele><time>2009-06-09T16:55:05Z</time></trkpt>
<trkpt lat="46.14408875" lon="7.11463213"><ele>546.755981</ele><time>2009-06-09T16:55:09Z</time></trkpt>
<trkpt lat="46.14406967" lon="7.11463404"><ele>547.60199</ele><time>2009-06-09T16:55:12Z</time></trkpt>
<trkpt lat="46.14403534" lon="7.11460209"><ele>548.151001</ele><time>2009-06-09T16:55:16Z</time></trkpt>
<trkpt lat="46.14400101" lon="7.11456919"><ele>548.734985</ele><time>2009-06-09T16:55:20Z</time></trkpt>
<trkpt lat="46.14398193" lon="7.11449194"><ele>549.239014</ele><time>2009-06-09T16:55:25Z</time></trkpt>
<trkpt lat="46.14394760" lon="7.11423302"><ele>548.838989</ele><time>2009-06-09T16:55:32Z</time></trkpt>
<trkpt lat="46.14384079" lon="7.11401510"><ele>548.632019</ele><time>2009-06-09T16:55:37Z</time></trkpt>
<trkpt lat="46.14381027" lon="7.11397314"><ele>548.591003</ele><time>2009-06-09T16:55:38Z</time></trkpt>
<trkpt lat="46.14366531" lon="7.11382580"><ele>548.296997</ele><time>2009-06-09T16:55:42Z</time></trkpt>
<trkpt lat="46.14347458" lon="7.11374378"><ele>548.880005</ele><time>2009-06-09T16:55:47Z</time></trkpt>
<trkpt lat="46.14342117" lon="7.11375284"><ele>549.187988</ele><time>2009-06-09T16:55:49Z</time></trkpt>
<trkpt lat="46.14320755" lon="7.11383915"><ele>549.692993</ele><time>2009-06-09T16:55:59Z</time></trkpt>
<trkpt lat="46.14304352" lon="7.11390686"><ele>550.775024</ele><time>2009-06-09T16:56:08Z</time></trkpt>
<trkpt lat="46.14301300" lon="7.11391878"><ele>551.083008</ele><time>2009-06-09T16:56:10Z</time></trkpt>
<trkpt lat="46.14293671" lon="7.11384106"><ele>551.633972</ele><time>2009-06-09T16:56:16Z</time></trkpt>
<trkpt lat="46.14287186" lon="7.11370993"><ele>551.400024</ele><time>2009-06-09T16:56:20Z</time></trkpt>
<trkpt lat="46.14278030" lon="7.11356688"><ele>551.429016</ele><time>2009-06-09T16:56:24Z</time></trkpt>
<trkpt lat="46.14265442" lon="7.11345816"><ele>552.080017</ele><time>2009-06-09T16:56:30Z</time></trkpt>
<trkpt lat="46.14253616" lon="7.11337280"><ele>552.661987</ele><time>2009-06-09T16:56:38Z</time></trkpt>
<trkpt lat="46.14239502" lon="7.11324787"><ele>554.353027</ele><time>2009-06-09T16:56:46Z</time></trkpt>
<trkpt lat="46.14224243" lon="7.11311483"><ele>555.906006</ele><time>2009-06-09T16:56:54Z</time></trkpt>
<trkpt lat="46.14212036" lon="7.11299706"><ele>556.221985</ele><time>2009-06-09T16:57:01Z</time></trkpt>
<trkpt lat="46.14199829" lon="7.11280584"><ele>555.513</ele><time>2009-06-09T16:57:09Z</time></trkpt>
<trkpt lat="46.14190292" lon="7.11254597"><ele>555.057983</ele><time>2009-06-09T16:57:17Z</time></trkpt>
<trkpt lat="46.14186859" lon="7.11225605"><ele>555.348022</ele><time>2009-06-09T16:57:23Z</time></trkpt>
<trkpt lat="46.14186859" lon="7.11203098"><ele>556.929993</ele><time>2009-06-09T16:57:29Z</time></trkpt>
<trkpt lat="46.14188004" lon="7.11181211"><ele>559.372986</ele><time>2009-06-09T16:57:37Z</time></trkpt>
<trkpt lat="46.14190292" lon="7.11159706"><ele>561.247986</ele><time>2009-06-09T16:57:45Z</time></trkpt>
<trkpt lat="46.14192581" lon="7.11139202"><ele>563.05603</ele><time>2009-06-09T16:57:53Z</time></trkpt>
<trkpt lat="46.14196777" lon="7.11111021"><ele>565.650024</ele><time>2009-06-09T16:58:04Z</time></trkpt>
<trkpt lat="46.14198685" lon="7.11093712"><ele>567.213989</ele><time>2009-06-09T16:58:11Z</time></trkpt>
<trkpt lat="46.14199829" lon="7.11071014"><ele>567.226013</ele><time>2009-06-09T16:58:20Z</time></trkpt>
<trkpt lat="46.14201355" lon="7.11050320"><ele>565.867981</ele><time>2009-06-09T16:58:28Z</time></trkpt>
<trkpt lat="46.14200592" lon="7.11027479"><ele>566.46698</ele><time>2009-06-09T16:58:37Z</time></trkpt>
<trkpt lat="46.14196014" lon="7.11005592"><ele>567.90802</ele><time>2009-06-09T16:58:46Z</time></trkpt>
<trkpt lat="46.14189911" lon="7.10981512"><ele>570.012024</ele><time>2009-06-09T16:58:56Z</time></trkpt>
<trkpt lat="46.14197540" lon="7.10972977"><ele>571.632019</ele><time>2009-06-09T16:59:03Z</time></trkpt>
<trkpt lat="46.14207840" lon="7.10980892"><ele>573.176025</ele><time>2009-06-09T16:59:11Z</time></trkpt>
<trkpt lat="46.14218521" lon="7.10992908"><ele>575.213989</ele><time>2009-06-09T16:59:20Z</time></trkpt>
<trkpt lat="46.14226532" lon="7.11009216"><ele>577.934021</ele><time>2009-06-09T16:59:29Z</time></trkpt>
<trkpt lat="46.14231110" lon="7.11027193"><ele>582.208984</ele><time>2009-06-09T16:59:38Z</time></trkpt>
<trkpt lat="46.14236069" lon="7.11042786"><ele>584.732971</ele><time>2009-06-09T16:59:46Z</time></trkpt>
<trkpt lat="46.14244843" lon="7.11057997"><ele>585.254028</ele><time>2009-06-09T16:59:54Z</time></trkpt>
<trkpt lat="46.14255142" lon="7.11067820"><ele>585.44397</ele><time>2009-06-09T17:00:01Z</time></trkpt>
<trkpt lat="46.14264679" lon="7.11077213"><ele>587.184998</ele><time>2009-06-09T17:00:08Z</time></trkpt>
<trkpt lat="46.14277649" lon="7.11089611"><ele>590.859009</ele><time>2009-06-09T17:00:18Z</time></trkpt>
<trkpt lat="46.14288330" lon="7.11100292"><ele>594.005005</ele><time>2009-06-09T17:00:26Z</time></trkpt>
<trkpt lat="46.14296341" lon="7.11112213"><ele>596.869019</ele><time>2009-06-09T17:00:33Z</time></trkpt>
<trkpt lat="46.14302063" lon="7.11121702"><ele>598.966003</ele><time>2009-06-09T17:00:38Z</time></trkpt>
<trkpt lat="46.14312744" lon="7.11140203"><ele>600.723999</ele><time>2009-06-09T17:00:47Z</time></trkpt>
<trkpt lat="46.14325714" lon="7.11160278"><ele>601.052002</ele><time>2009-06-09T17:00:57Z</time></trkpt>
<trkpt lat="46.14333344" lon="7.11172104"><ele>601.028992</ele><time>2009-06-09T17:01:03Z</time></trkpt>
<trkpt lat="46.14344025" lon="7.11185789"><ele>602.914978</ele><time>2009-06-09T17:01:11Z</time></trkpt>
<trkpt lat="46.14354324" lon="7.11192799"><ele>605.301025</ele><time>2009-06-09T17:01:18Z</time></trkpt>
<trkpt lat="46.14363861" lon="7.11197710"><ele>606.89502</ele><time>2009-06-09T17:01:24Z</time></trkpt>
<trkpt lat="46.14375687" lon="7.11201811"><ele>606.75</ele><time>2009-06-09T17:01:30Z</time></trkpt>
<trkpt lat="46.14383698" lon="7.11195898"><ele>606.874023</ele><time>2009-06-09T17:01:35Z</time></trkpt>
<trkpt lat="46.14382172" lon="7.11188507"><ele>607.375977</ele><time>2009-06-09T17:01:38Z</time></trkpt>
<trkpt lat="46.14373398" lon="7.11173296"><ele>609.906982</ele><time>2009-06-09T17:01:46Z</time></trkpt>
<trkpt lat="46.14369202" lon="7.11162901"><ele>610.052002</ele><time>2009-06-09T17:01:52Z</time></trkpt>
<trkpt lat="46.14367676" lon="7.11156797"><ele>609.924011</ele><time>2009-06-09T17:01:58Z</time></trkpt>
<trkpt lat="46.14368057" lon="7.11154604"><ele>610.085999</ele><time>2009-06-09T17:02:00Z</time></trkpt>
<trkpt lat="46.14365387" lon="7.11148882"><ele>610.742004</ele><time>2009-06-09T17:02:06Z</time></trkpt>
<trkpt lat="46.14367294" lon="7.11143923"><ele>611.067017</ele><time>2009-06-09T17:02:11Z</time></trkpt>
<trkpt lat="46.14363861" lon="7.11140680"><ele>611.333984</ele><time>2009-06-09T17:02:15Z</time></trkpt>
<trkpt lat="46.14365768" lon="7.11135483"><ele>611.473022</ele><time>2009-06-09T17:02:21Z</time></trkpt>
<trkpt lat="46.14365005" lon="7.11129904"><ele>611.856018</ele><time>2009-06-09T17:02:26Z</time></trkpt>
<trkpt lat="46.14364624" lon="7.11127615"><ele>612.107971</ele><time>2009-06-09T17:02:28Z</time></trkpt>
<trkpt lat="46.14366531" lon="7.11125612"><ele>612.127991</ele><time>2009-06-09T17:02:31Z</time></trkpt>
<trkpt lat="46.14365387" lon="7.11119509"><ele>612.017029</ele><time>2009-06-09T17:02:37Z</time></trkpt>
<trkpt lat="46.14366531" lon="7.11116219"><ele>612.231018</ele><time>2009-06-09T17:02:40Z</time></trkpt>
<trkpt lat="46.14366531" lon="7.11108780"><ele>612.539978</ele><time>2009-06-09T17:02:46Z</time></trkpt>
<trkpt lat="46.14367294" lon="7.11101198"><ele>613.017029</ele><time>2009-06-09T17:02:52Z</time></trkpt>
<trkpt lat="46.14366531" lon="7.11100101"><ele>613.046997</ele><time>2009-06-09T17:02:53Z</time></trkpt>
<trkpt lat="46.14365768" lon="7.11097479"><ele>613.323975</ele><time>2009-06-09T17:02:55Z</time></trkpt>
<trkpt lat="46.14367676" lon="7.11090612"><ele>613.827026</ele><time>2009-06-09T17:03:01Z</time></trkpt>
<trkpt lat="46.14365768" lon="7.11082077"><ele>614.252991</ele><time>2009-06-09T17:03:08Z</time></trkpt>
<trkpt lat="46.14366150" lon="7.11073589"><ele>614.968018</ele><time>2009-06-09T17:03:14Z</time></trkpt>
<trkpt lat="46.14368439" lon="7.11065578"><ele>615.578003</ele><time>2009-06-09T17:03:20Z</time></trkpt>
<trkpt lat="46.14369583" lon="7.11053514"><ele>617.072998</ele><time>2009-06-09T17:03:28Z</time></trkpt>
<trkpt lat="46.14370346" lon="7.11037779"><ele>618.268982</ele><time>2009-06-09T17:03:37Z</time></trkpt>
<trkpt lat="46.14369202" lon="7.11025810"><ele>618.077026</ele><time>2009-06-09T17:03:44Z</time></trkpt>
<trkpt lat="46.14365768" lon="7.11011887"><ele>619.982971</ele><time>2009-06-09T17:03:53Z</time></trkpt>
<trkpt lat="46.14365387" lon="7.10997581"><ele>620.742004</ele><time>2009-06-09T17:04:01Z</time></trkpt>
<trkpt lat="46.14363861" lon="7.10982704"><ele>622.60199</ele><time>2009-06-09T17:04:09Z</time></trkpt>
<trkpt lat="46.14361191" lon="7.10971212"><ele>623.133972</ele><time>2009-06-09T17:04:15Z</time></trkpt>
<trkpt lat="46.14355850" lon="7.10959721"><ele>625.768982</ele><time>2009-06-09T17:04:22Z</time></trkpt>
<trkpt lat="46.14353180" lon="7.10944891"><ele>627.805969</ele><time>2009-06-09T17:04:30Z</time></trkpt>
<trkpt lat="46.14353561" lon="7.10940886"><ele>628.530029</ele><time>2009-06-09T17:04:32Z</time></trkpt>
<trkpt lat="46.14358902" lon="7.10936689"><ele>628.518005</ele><time>2009-06-09T17:04:39Z</time></trkpt>
<trkpt lat="46.14364243" lon="7.10938597"><ele>629.622009</ele><time>2009-06-09T17:04:43Z</time></trkpt>
<trkpt lat="46.14370728" lon="7.10955000"><ele>636.013</ele><time>2009-06-09T17:04:53Z</time></trkpt>
<trkpt lat="46.14375687" lon="7.10966682"><ele>639.808044</ele><time>2009-06-09T17:05:00Z</time></trkpt>
<trkpt lat="46.14382172" lon="7.10980177"><ele>643.56897</ele><time>2009-06-09T17:05:08Z</time></trkpt>
<trkpt lat="46.14388657" lon="7.10989904"><ele>645.569946</ele><time>2009-06-09T17:05:15Z</time></trkpt>
<trkpt lat="46.14398575" lon="7.10994005"><ele>642.125</ele><time>2009-06-09T17:05:21Z</time></trkpt>
<trkpt lat="46.14407349" lon="7.10995722"><ele>644.831909</ele><time>2009-06-09T17:05:28Z</time></trkpt>
<trkpt lat="46.14416885" lon="7.11001921"><ele>651.049011</ele><time>2009-06-09T17:05:36Z</time></trkpt>
<trkpt lat="46.14421844" lon="7.11008215"><ele>652.945984</ele><time>2009-06-09T17:05:41Z</time></trkpt>
<trkpt lat="46.14429092" lon="7.11029196"><ele>653.713013</ele><time>2009-06-09T17:05:51Z</time></trkpt>
<trkpt lat="46.14438248" lon="7.11036301"><ele>654.598022</ele><time>2009-06-09T17:05:57Z</time></trkpt>
<trkpt lat="46.14445496" lon="7.11022091"><ele>654.161011</ele><time>2009-06-09T17:06:05Z</time></trkpt>
<trkpt lat="46.14445114" lon="7.11004877"><ele>652.999023</ele><time>2009-06-09T17:06:13Z</time></trkpt>
<trkpt lat="46.14443970" lon="7.10987616"><ele>653.049988</ele><time>2009-06-09T17:06:21Z</time></trkpt>
<trkpt lat="46.14440155" lon="7.10973501"><ele>653.198975</ele><time>2009-06-09T17:06:28Z</time></trkpt>
<trkpt lat="46.14435196" lon="7.10961199"><ele>655.612976</ele><time>2009-06-09T17:06:35Z</time></trkpt>
<trkpt lat="46.14428329" lon="7.10945415"><ele>658.659058</ele><time>2009-06-09T17:06:44Z</time></trkpt>
<trkpt lat="46.14421844" lon="7.10930681"><ele>661.948975</ele><time>2009-06-09T17:06:52Z</time></trkpt>
<trkpt lat="46.14417267" lon="7.10912991"><ele>663.520996</ele><time>2009-06-09T17:07:00Z</time></trkpt>
<trkpt lat="46.14414215" lon="7.10897493"><ele>665.333984</ele><time>2009-06-09T17:07:07Z</time></trkpt>
<trkpt lat="46.14411545" lon="7.10876513"><ele>666.47699</ele><time>2009-06-09T17:07:17Z</time></trkpt>
<trkpt lat="46.14406586" lon="7.10862684"><ele>666.491028</ele><time>2009-06-09T17:07:24Z</time></trkpt>
<trkpt lat="46.14396286" lon="7.10844278"><ele>665.346008</ele><time>2009-06-09T17:07:34Z</time></trkpt>
<trkpt lat="46.14384079" lon="7.10834694"><ele>667.440979</ele><time>2009-06-09T17:07:42Z</time></trkpt>
<trkpt lat="46.14373016" lon="7.10830498"><ele>668.513</ele><time>2009-06-09T17:07:49Z</time></trkpt>
<trkpt lat="46.14363098" lon="7.10822392"><ele>668.830017</ele><time>2009-06-09T17:07:57Z</time></trkpt>
<trkpt lat="46.14357758" lon="7.10806417"><ele>669.598022</ele><time>2009-06-09T17:08:05Z</time></trkpt>
<trkpt lat="46.14355087" lon="7.10790920"><ele>669.495972</ele><time>2009-06-09T17:08:12Z</time></trkpt>
<trkpt lat="46.14348984" lon="7.10771513"><ele>670.772034</ele><time>2009-06-09T17:08:21Z</time></trkpt>
<trkpt lat="46.14338303" lon="7.10752392"><ele>672.874084</ele><time>2009-06-09T17:08:31Z</time></trkpt>
<trkpt lat="46.14326477" lon="7.10739803"><ele>673.364014</ele><time>2009-06-09T17:08:39Z</time></trkpt>
<trkpt lat="46.14309692" lon="7.10728216"><ele>673.562988</ele><time>2009-06-09T17:08:47Z</time></trkpt>
<trkpt lat="46.14282227" lon="7.10715723"><ele>674.617004</ele><time>2009-06-09T17:08:57Z</time></trkpt>
<trkpt lat="46.14259338" lon="7.10715485"><ele>675.633972</ele><time>2009-06-09T17:09:05Z</time></trkpt>
<trkpt lat="46.14237213" lon="7.10719013"><ele>677.690002</ele><time>2009-06-09T17:09:13Z</time></trkpt>
<trkpt lat="46.14224243" lon="7.10724115"><ele>678.101074</ele><time>2009-06-09T17:09:20Z</time></trkpt>
<trkpt lat="46.14222717" lon="7.10725880"><ele>678.118042</ele><time>2009-06-09T17:09:21Z</time></trkpt>
<trkpt lat="46.14216232" lon="7.10725498"><ele>678.098022</ele><time>2009-06-09T17:09:26Z</time></trkpt>
<trkpt lat="46.14215088" lon="7.10723400"><ele>678.085999</ele><time>2009-06-09T17:09:28Z</time></trkpt>
<trkpt lat="46.14218521" lon="7.10720015"><ele>678.330994</ele><time>2009-06-09T17:09:33Z</time></trkpt>
<trkpt lat="46.14218903" lon="7.10726500"><ele>678.291992</ele><time>2009-06-09T17:09:37Z</time></trkpt>
<trkpt lat="46.14214706" lon="7.10724688"><ele>678.309998</ele><time>2009-06-09T17:09:42Z</time></trkpt>
<trkpt lat="46.14213181" lon="7.10723686"><ele>678.383972</ele><time>2009-06-09T17:09:46Z</time></trkpt>
<trkpt lat="46.14218521" lon="7.10709810"><ele>677.296997</ele><time>2009-06-09T17:15:11Z</time></trkpt>
<trkpt lat="46.14215088" lon="7.10702085"><ele>677.757996</ele><time>2009-06-09T17:15:13Z</time></trkpt>
<trkpt lat="46.14200211" lon="7.10669422"><ele>680.271973</ele><time>2009-06-09T17:15:21Z</time></trkpt>
<trkpt lat="46.14186096" lon="7.10644722"><ele>682.237976</ele><time>2009-06-09T17:15:28Z</time></trkpt>
<trkpt lat="46.14167786" lon="7.10619116"><ele>684.161987</ele><time>2009-06-09T17:15:36Z</time></trkpt>
<trkpt lat="46.14155960" lon="7.10603523"><ele>686.276001</ele><time>2009-06-09T17:15:43Z</time></trkpt>
<trkpt lat="46.14142990" lon="7.10590410"><ele>687.797974</ele><time>2009-06-09T17:15:51Z</time></trkpt>
<trkpt lat="46.14136887" lon="7.10566998"><ele>689.148987</ele><time>2009-06-09T17:15:59Z</time></trkpt>
<trkpt lat="46.14131927" lon="7.10545301"><ele>690.26593</ele><time>2009-06-09T17:16:06Z</time></trkpt>
<trkpt lat="46.14122391" lon="7.10533619"><ele>689.689026</ele><time>2009-06-09T17:16:11Z</time></trkpt>
<trkpt lat="46.14118958" lon="7.10531616"><ele>689.40802</ele><time>2009-06-09T17:16:12Z</time></trkpt>
<trkpt lat="46.14098358" lon="7.10512781"><ele>688.682922</ele><time>2009-06-09T17:16:18Z</time></trkpt>
<trkpt lat="46.14083862" lon="7.10488176"><ele>689.013916</ele><time>2009-06-09T17:16:25Z</time></trkpt>
<trkpt lat="46.14078140" lon="7.10479403"><ele>689.353027</ele><time>2009-06-09T17:16:28Z</time></trkpt>
<trkpt lat="46.14072037" lon="7.10472202"><ele>688.934021</ele><time>2009-06-09T17:16:33Z</time></trkpt>
<trkpt lat="46.14071655" lon="7.10472202"><ele>688.71991</ele><time>2009-06-09T17:16:34Z</time></trkpt>
<trkpt lat="46.14064789" lon="7.10477686"><ele>686.869995</ele><time>2009-06-09T17:16:40Z</time></trkpt>
<trkpt lat="46.14064407" lon="7.10477781"><ele>686.687988</ele><time>2009-06-09T17:16:41Z</time></trkpt>
<trkpt lat="46.14060593" lon="7.10481119"><ele>684.551025</ele><time>2009-06-09T17:16:57Z</time></trkpt>
<trkpt lat="46.14052963" lon="7.10461187"><ele>683.418945</ele><time>2009-06-09T17:17:11Z</time></trkpt>
<trkpt lat="46.14028168" lon="7.10425997"><ele>681.34198</ele><time>2009-06-09T17:17:20Z</time></trkpt>
<trkpt lat="46.14018250" lon="7.10408592"><ele>681.658997</ele><time>2009-06-09T17:17:25Z</time></trkpt>
<trkpt lat="46.14009094" lon="7.10385323"><ele>681.728088</ele><time>2009-06-09T17:17:33Z</time></trkpt>
<trkpt lat="46.14002609" lon="7.10367584"><ele>681.429016</ele><time>2009-06-09T17:17:38Z</time></trkpt>
<trkpt lat="46.13993835" lon="7.10341406"><ele>683.208984</ele><time>2009-06-09T17:17:45Z</time></trkpt>
<trkpt lat="46.13990021" lon="7.10325384"><ele>684.940979</ele><time>2009-06-09T17:17:51Z</time></trkpt>
<trkpt lat="46.13988876" lon="7.10306120"><ele>686.716064</ele><time>2009-06-09T17:17:58Z</time></trkpt>
<trkpt lat="46.13993454" lon="7.10300589"><ele>687.28302</ele><time>2009-06-09T17:18:02Z</time></trkpt>
<trkpt lat="46.14001465" lon="7.10284615"><ele>688.371948</ele><time>2009-06-09T17:18:09Z</time></trkpt>
<trkpt lat="46.14004517" lon="7.10265017"><ele>689.340027</ele><time>2009-06-09T17:18:17Z</time></trkpt>
<trkpt lat="46.14005280" lon="7.10248423"><ele>691.318054</ele><time>2009-06-09T17:18:27Z</time></trkpt>
<trkpt lat="46.14005661" lon="7.10236883"><ele>693.08606</ele><time>2009-06-09T17:18:34Z</time></trkpt>
<trkpt lat="46.14006042" lon="7.10233784"><ele>693.673035</ele><time>2009-06-09T17:18:36Z</time></trkpt>
<trkpt lat="46.14005280" lon="7.10222292"><ele>694.083008</ele><time>2009-06-09T17:18:43Z</time></trkpt>
<trkpt lat="46.14009094" lon="7.10203981"><ele>693.825989</ele><time>2009-06-09T17:18:48Z</time></trkpt>
<trkpt lat="46.14007950" lon="7.10173512"><ele>695.27301</ele><time>2009-06-09T17:18:55Z</time></trkpt>
<trkpt lat="46.14005280" lon="7.10150909"><ele>694.018982</ele><time>2009-06-09T17:18:59Z</time></trkpt>
<trkpt lat="46.13993073" lon="7.10115385"><ele>691.406006</ele><time>2009-06-09T17:19:03Z</time></trkpt>
<trkpt lat="46.13978195" lon="7.10094118"><ele>690.439026</ele><time>2009-06-09T17:19:06Z</time></trkpt>
<trkpt lat="46.13956070" lon="7.10070181"><ele>690.267944</ele><time>2009-06-09T17:19:11Z</time></trkpt>
<trkpt lat="46.13953018" lon="7.10068607"><ele>690.90802</ele><time>2009-06-09T17:19:14Z</time></trkpt>
<trkpt lat="46.13944244" lon="7.10071087"><ele>694.138</ele><time>2009-06-09T17:19:22Z</time></trkpt>
<trkpt lat="46.13932037" lon="7.10074091"><ele>696.494995</ele><time>2009-06-09T17:19:30Z</time></trkpt>
<trkpt lat="46.13920975" lon="7.10068703"><ele>696.716003</ele><time>2009-06-09T17:19:38Z</time></trkpt>
<trkpt lat="46.13910294" lon="7.10063696"><ele>697.379028</ele><time>2009-06-09T17:19:46Z</time></trkpt>
<trkpt lat="46.13908768" lon="7.10062885"><ele>697.300964</ele><time>2009-06-09T17:19:47Z</time></trkpt>
<trkpt lat="46.13903427" lon="7.10061407"><ele>697.955994</ele><time>2009-06-09T17:19:51Z</time></trkpt>
<trkpt lat="46.13892746" lon="7.10060883"><ele>698.370972</ele><time>2009-06-09T17:19:58Z</time></trkpt>
<trkpt lat="46.13879395" lon="7.10049486"><ele>698.406067</ele><time>2009-06-09T17:20:07Z</time></trkpt>
<trkpt lat="46.13867188" lon="7.10033417"><ele>697.71698</ele><time>2009-06-09T17:20:14Z</time></trkpt>
<trkpt lat="46.13861847" lon="7.10016203"><ele>698.299988</ele><time>2009-06-09T17:20:18Z</time></trkpt>
<trkpt lat="46.13859177" lon="7.09986115"><ele>698.921997</ele><time>2009-06-09T17:20:25Z</time></trkpt>
<trkpt lat="46.13849640" lon="7.09964180"><ele>698.731995</ele><time>2009-06-09T17:20:30Z</time></trkpt>
<trkpt lat="46.13847351" lon="7.09960890"><ele>698.711975</ele><time>2009-06-09T17:20:31Z</time></trkpt>
<trkpt lat="46.13839340" lon="7.09945393"><ele>698.238953</ele><time>2009-06-09T17:20:36Z</time></trkpt>
<trkpt lat="46.13834381" lon="7.09939623"><ele>697.937988</ele><time>2009-06-09T17:20:38Z</time></trkpt>
<trkpt lat="46.13816833" lon="7.09924698"><ele>697.028015</ele><time>2009-06-09T17:20:44Z</time></trkpt>
<trkpt lat="46.13805389" lon="7.09913588"><ele>696.057983</ele><time>2009-06-09T17:20:49Z</time></trkpt>
<trkpt lat="46.13802719" lon="7.09895992"><ele>694.953979</ele><time>2009-06-09T17:20:53Z</time></trkpt>
<trkpt lat="46.13811111" lon="7.09869194"><ele>693.304932</ele><time>2009-06-09T17:20:57Z</time></trkpt>
<trkpt lat="46.13814163" lon="7.09860086"><ele>692.52002</ele><time>2009-06-09T17:20:58Z</time></trkpt>
<trkpt lat="46.13819885" lon="7.09810114"><ele>688.943054</ele><time>2009-06-09T17:21:02Z</time></trkpt>
<trkpt lat="46.13822937" lon="7.09783888"><ele>688.695007</ele><time>2009-06-09T17:21:04Z</time></trkpt>
<trkpt lat="46.13820267" lon="7.09748077"><ele>691.362976</ele><time>2009-06-09T17:21:08Z</time></trkpt>
<trkpt lat="46.13818741" lon="7.09742498"><ele>692.187988</ele><time>2009-06-09T17:21:09Z</time></trkpt>
<trkpt lat="46.13813782" lon="7.09724092"><ele>694.55603</ele><time>2009-06-09T17:21:15Z</time></trkpt>
<trkpt lat="46.13809586" lon="7.09705877"><ele>696.242981</ele><time>2009-06-09T17:21:21Z</time></trkpt>
<trkpt lat="46.13808441" lon="7.09688807"><ele>696.893921</ele><time>2009-06-09T17:21:29Z</time></trkpt>
<trkpt lat="46.13808060" lon="7.09672022"><ele>696.618958</ele><time>2009-06-09T17:21:37Z</time></trkpt>
<trkpt lat="46.13807678" lon="7.09657383"><ele>696.68103</ele><time>2009-06-09T17:21:44Z</time></trkpt>
<trkpt lat="46.13805771" lon="7.09636116"><ele>696.723022</ele><time>2009-06-09T17:21:54Z</time></trkpt>
<trkpt lat="46.13803482" lon="7.09623623"><ele>698.249023</ele><time>2009-06-09T17:22:01Z</time></trkpt>
<trkpt lat="46.13803482" lon="7.09617996"><ele>698.987976</ele><time>2009-06-09T17:22:04Z</time></trkpt>
<trkpt lat="46.13800430" lon="7.09602499"><ele>701.367004</ele><time>2009-06-09T17:22:13Z</time></trkpt>
<trkpt lat="46.13799667" lon="7.09592581"><ele>702.557007</ele><time>2009-06-09T17:22:19Z</time></trkpt>
<trkpt lat="46.13795471" lon="7.09579611"><ele>704.651978</ele><time>2009-06-09T17:22:26Z</time></trkpt>
<trkpt lat="46.13792038" lon="7.09568977"><ele>706.072021</ele><time>2009-06-09T17:22:32Z</time></trkpt>
<trkpt lat="46.13791656" lon="7.09558105"><ele>707.650024</ele><time>2009-06-09T17:22:40Z</time></trkpt>
<trkpt lat="46.13791656" lon="7.09554815"><ele>708.120972</ele><time>2009-06-09T17:22:42Z</time></trkpt>
<trkpt lat="46.13797760" lon="7.09551001"><ele>708.995972</ele><time>2009-06-09T17:22:48Z</time></trkpt>
<trkpt lat="46.13807297" lon="7.09557295"><ele>712.228943</ele><time>2009-06-09T17:22:57Z</time></trkpt>
<trkpt lat="46.13809586" lon="7.09566116"><ele>716.911011</ele><time>2009-06-09T17:23:04Z</time></trkpt>
<trkpt lat="46.13811111" lon="7.09572697"><ele>720.437012</ele><time>2009-06-09T17:23:08Z</time></trkpt>
<trkpt lat="46.13816833" lon="7.09589911"><ele>729.406982</ele><time>2009-06-09T17:23:18Z</time></trkpt>
<trkpt lat="46.13822556" lon="7.09603786"><ele>731.461975</ele><time>2009-06-09T17:23:26Z</time></trkpt>
<trkpt lat="46.13823318" lon="7.09605312"><ele>731.487976</ele><time>2009-06-09T17:23:27Z</time></trkpt>
<trkpt lat="46.13828659" lon="7.09605789"><ele>729.403992</ele><time>2009-06-09T17:23:32Z</time></trkpt>
<trkpt lat="46.13832092" lon="7.09608984"><ele>727.942993</ele><time>2009-06-09T17:23:37Z</time></trkpt>
<trkpt lat="46.13828659" lon="7.09606600"><ele>726.703003</ele><time>2009-06-09T17:23:43Z</time></trkpt>
<trkpt lat="46.13830185" lon="7.09605122"><ele>725.289978</ele><time>2009-06-09T17:23:46Z</time></trkpt>
<trkpt lat="46.13822556" lon="7.09584618"><ele>716.804993</ele><time>2009-06-09T17:24:24Z</time></trkpt>
<trkpt lat="46.13809967" lon="7.09562397"><ele>714.33197</ele><time>2009-06-09T17:24:27Z</time></trkpt>
<trkpt lat="46.13796997" lon="7.09553099"><ele>711.04303</ele><time>2009-06-09T17:24:30Z</time></trkpt>
<trkpt lat="46.13793945" lon="7.09567118"><ele>708.442993</ele><time>2009-06-09T17:24:32Z</time></trkpt>
<trkpt lat="46.13795853" lon="7.09575891"><ele>707.03302</ele><time>2009-06-09T17:24:33Z</time></trkpt>
<trkpt lat="46.13807678" lon="7.09652281"><ele>697.973022</ele><time>2009-06-09T17:24:39Z</time></trkpt>
<trkpt lat="46.13813400" lon="7.09704304"><ele>694.458984</ele><time>2009-06-09T17:24:42Z</time></trkpt>
<trkpt lat="46.13826370" lon="7.09765816"><ele>688.755005</ele><time>2009-06-09T17:24:46Z</time></trkpt>
<trkpt lat="46.13825989" lon="7.09807014"><ele>684.932007</ele><time>2009-06-09T17:24:50Z</time></trkpt>
<trkpt lat="46.13817215" lon="7.09808683"><ele>683.237061</ele><time>2009-06-09T17:24:53Z</time></trkpt>
<trkpt lat="46.13814163" lon="7.09803581"><ele>683.032959</ele><time>2009-06-09T17:24:54Z</time></trkpt>
<trkpt lat="46.13795090" lon="7.09769487"><ele>679.838989</ele><time>2009-06-09T17:24:59Z</time></trkpt>
<trkpt lat="46.13772964" lon="7.09733582"><ele>677.005981</ele><time>2009-06-09T17:25:03Z</time></trkpt>
<trkpt lat="46.13758850" lon="7.09704399"><ele>674.586975</ele><time>2009-06-09T17:25:06Z</time></trkpt>
<trkpt lat="46.13752747" lon="7.09673691"><ele>671.600037</ele><time>2009-06-09T17:25:10Z</time></trkpt>
<trkpt lat="46.13746262" lon="7.09658003"><ele>670.086975</ele><time>2009-06-09T17:25:13Z</time></trkpt>
<trkpt lat="46.13739777" lon="7.09663105"><ele>668.896973</ele><time>2009-06-09T17:25:16Z</time></trkpt>
<trkpt lat="46.13739777" lon="7.09683180"><ele>667.580017</ele><time>2009-06-09T17:25:20Z</time></trkpt>
<trkpt lat="46.13736725" lon="7.09729624"><ele>664.593018</ele><time>2009-06-09T17:25:24Z</time></trkpt>
<trkpt lat="46.13737488" lon="7.09766006"><ele>661.242004</ele><time>2009-06-09T17:25:27Z</time></trkpt>
<trkpt lat="46.13732910" lon="7.09777689"><ele>659.200012</ele><time>2009-06-09T17:25:30Z</time></trkpt>
<trkpt lat="46.13730240" lon="7.09775305"><ele>658.155029</ele><time>2009-06-09T17:25:32Z</time></trkpt>
<trkpt lat="46.13722610" lon="7.09752178"><ele>655.659058</ele><time>2009-06-09T17:25:38Z</time></trkpt>
<trkpt lat="46.13716125" lon="7.09733677"><ele>653.966064</ele><time>2009-06-09T17:25:43Z</time></trkpt>
<trkpt lat="46.13709259" lon="7.09722900"><ele>652.28894</ele><time>2009-06-09T17:25:46Z</time></trkpt>
<trkpt lat="46.13703537" lon="7.09690714"><ele>649.921997</ele><time>2009-06-09T17:25:50Z</time></trkpt>
<trkpt lat="46.13705444" lon="7.09676981"><ele>649.411987</ele><time>2009-06-09T17:25:52Z</time></trkpt>
<trkpt lat="46.13699341" lon="7.09663486"><ele>650.310974</ele><time>2009-06-09T17:25:57Z</time></trkpt>
<trkpt lat="46.13698196" lon="7.09661722"><ele>650.370972</ele><time>2009-06-09T17:25:58Z</time></trkpt>
<trkpt lat="46.13689041" lon="7.09642792"><ele>652.390991</ele><time>2009-06-09T17:26:05Z</time></trkpt>
<trkpt lat="46.13685608" lon="7.09622812"><ele>654.637024</ele><time>2009-06-09T17:26:12Z</time></trkpt>
<trkpt lat="46.13682938" lon="7.09606123"><ele>656.325012</ele><time>2009-06-09T17:26:18Z</time></trkpt>
<trkpt lat="46.13678741" lon="7.09590006"><ele>658.174011</ele><time>2009-06-09T17:26:24Z</time></trkpt>
<trkpt lat="46.13668823" lon="7.09571886"><ele>659.255005</ele><time>2009-06-09T17:26:32Z</time></trkpt>
<trkpt lat="46.13658142" lon="7.09560299"><ele>658.987915</ele><time>2009-06-09T17:26:39Z</time></trkpt>
<trkpt lat="46.13649368" lon="7.09550190"><ele>658.438965</ele><time>2009-06-09T17:26:45Z</time></trkpt>
<trkpt lat="46.13647461" lon="7.09547901"><ele>658.283997</ele><time>2009-06-09T17:26:47Z</time></trkpt>
<trkpt lat="46.13637543" lon="7.09544992"><ele>657.594971</ele><time>2009-06-09T17:26:55Z</time></trkpt>
<trkpt lat="46.13620377" lon="7.09541607"><ele>657.419983</ele><time>2009-06-09T17:27:02Z</time></trkpt>
<trkpt lat="46.13599777" lon="7.09536791"><ele>658.028992</ele><time>2009-06-09T17:27:11Z</time></trkpt>
<trkpt lat="46.13583374" lon="7.09521723"><ele>657.468994</ele><time>2009-06-09T17:27:18Z</time></trkpt>
<trkpt lat="46.13566589" lon="7.09518909"><ele>656.658997</ele><time>2009-06-09T17:27:23Z</time></trkpt>
<trkpt lat="46.13546371" lon="7.09527302"><ele>656.776001</ele><time>2009-06-09T17:27:28Z</time></trkpt>
<trkpt lat="46.13511276" lon="7.09536600"><ele>656.05603</ele><time>2009-06-09T17:27:36Z</time></trkpt>
<trkpt lat="46.13482285" lon="7.09530687"><ele>654.661926</ele><time>2009-06-09T17:27:42Z</time></trkpt>
<trkpt lat="46.13477325" lon="7.09529305"><ele>654.492981</ele><time>2009-06-09T17:27:43Z</time></trkpt>
<trkpt lat="46.13451385" lon="7.09529495"><ele>653.27002</ele><time>2009-06-09T17:27:48Z</time></trkpt>
<trkpt lat="46.13428879" lon="7.09518909"><ele>652.890991</ele><time>2009-06-09T17:27:53Z</time></trkpt>
<trkpt lat="46.13417816" lon="7.09498692"><ele>653.638977</ele><time>2009-06-09T17:27:58Z</time></trkpt>
<trkpt lat="46.13402557" lon="7.09460497"><ele>653.138977</ele><time>2009-06-09T17:28:06Z</time></trkpt>
<trkpt lat="46.13387680" lon="7.09426022"><ele>650.89209</ele><time>2009-06-09T17:28:12Z</time></trkpt>
<trkpt lat="46.13383484" lon="7.09395885"><ele>648.356018</ele><time>2009-06-09T17:28:16Z</time></trkpt>
<trkpt lat="46.13391113" lon="7.09364510"><ele>646.13501</ele><time>2009-06-09T17:28:19Z</time></trkpt>
<trkpt lat="46.13398743" lon="7.09345007"><ele>644.927063</ele><time>2009-06-09T17:28:21Z</time></trkpt>
<trkpt lat="46.13401794" lon="7.09313679"><ele>643.981995</ele><time>2009-06-09T17:28:25Z</time></trkpt>
<trkpt lat="46.13397980" lon="7.09305811"><ele>643.754028</ele><time>2009-06-09T17:28:27Z</time></trkpt>
<trkpt lat="46.13384247" lon="7.09282112"><ele>641.591919</ele><time>2009-06-09T17:28:31Z</time></trkpt>
<trkpt lat="46.13351822" lon="7.09201097"><ele>638.320007</ele><time>2009-06-09T17:28:40Z</time></trkpt>
<trkpt lat="46.13321686" lon="7.09136820"><ele>636.189026</ele><time>2009-06-09T17:28:47Z</time></trkpt>
<trkpt lat="46.13309097" lon="7.09109116"><ele>635.703064</ele><time>2009-06-09T17:28:50Z</time></trkpt>
<trkpt lat="46.13291931" lon="7.09086323"><ele>634.171021</ele><time>2009-06-09T17:28:54Z</time></trkpt>
<trkpt lat="46.13268661" lon="7.09066200"><ele>631.231995</ele><time>2009-06-09T17:28:58Z</time></trkpt>
<trkpt lat="46.13230896" lon="7.09036684"><ele>625.812988</ele><time>2009-06-09T17:29:03Z</time></trkpt>
<trkpt lat="46.13222122" lon="7.09028578"><ele>624.723999</ele><time>2009-06-09T17:29:04Z</time></trkpt>
<trkpt lat="46.13205719" lon="7.09009218"><ele>622.156982</ele><time>2009-06-09T17:29:06Z</time></trkpt>
<trkpt lat="46.13183212" lon="7.08985806"><ele>618.132996</ele><time>2009-06-09T17:29:09Z</time></trkpt>
<trkpt lat="46.13170624" lon="7.08987188"><ele>614.507996</ele><time>2009-06-09T17:29:13Z</time></trkpt>
<trkpt lat="46.13171387" lon="7.08989382"><ele>614.208008</ele><time>2009-06-09T17:29:14Z</time></trkpt>
<trkpt lat="46.13184357" lon="7.09004593"><ele>612.570984</ele><time>2009-06-09T17:29:20Z</time></trkpt>
<trkpt lat="46.13203430" lon="7.09038115"><ele>611.125977</ele><time>2009-06-09T17:29:25Z</time></trkpt>
<trkpt lat="46.13212967" lon="7.09059715"><ele>609.335999</ele><time>2009-06-09T17:29:27Z</time></trkpt>
<trkpt lat="46.13229752" lon="7.09090996"><ele>605.56897</ele><time>2009-06-09T17:29:30Z</time></trkpt>
<trkpt lat="46.13241577" lon="7.09103823"><ele>603.771973</ele><time>2009-06-09T17:29:32Z</time></trkpt>
<trkpt lat="46.13246918" lon="7.09118223"><ele>600.968994</ele><time>2009-06-09T17:29:35Z</time></trkpt>
<trkpt lat="46.13242340" lon="7.09119177"><ele>600.473022</ele><time>2009-06-09T17:29:37Z</time></trkpt>
<trkpt lat="46.13229370" lon="7.09108305"><ele>598.19397</ele><time>2009-06-09T17:29:44Z</time></trkpt>
<trkpt lat="46.13211823" lon="7.09094620"><ele>596.22998</ele><time>2009-06-09T17:29:48Z</time></trkpt>
<trkpt lat="46.13196182" lon="7.09069490"><ele>593.426025</ele><time>2009-06-09T17:29:52Z</time></trkpt>
<trkpt lat="46.13189697" lon="7.09065723"><ele>592.281006</ele><time>2009-06-09T17:29:54Z</time></trkpt>
<trkpt lat="46.13187027" lon="7.09079409"><ele>590.182007</ele><time>2009-06-09T17:29:57Z</time></trkpt>
<trkpt lat="46.13189316" lon="7.09087181"><ele>589.947998</ele><time>2009-06-09T17:29:58Z</time></trkpt>
<trkpt lat="46.13210297" lon="7.09123516"><ele>587.926025</ele><time>2009-06-09T17:30:03Z</time></trkpt>
<trkpt lat="46.13216782" lon="7.09136581"><ele>586.10199</ele><time>2009-06-09T17:30:06Z</time></trkpt>
<trkpt lat="46.13210297" lon="7.09136820"><ele>584.166992</ele><time>2009-06-09T17:30:08Z</time></trkpt>
<trkpt lat="46.13206482" lon="7.09133196"><ele>583.549988</ele><time>2009-06-09T17:30:09Z</time></trkpt>
<trkpt lat="46.13187027" lon="7.09113598"><ele>579.77002</ele><time>2009-06-09T17:30:13Z</time></trkpt>
<trkpt lat="46.13160324" lon="7.09080696"><ele>575.312012</ele><time>2009-06-09T17:30:17Z</time></trkpt>
<trkpt lat="46.13148117" lon="7.09067488"><ele>573.770996</ele><time>2009-06-09T17:30:19Z</time></trkpt>
<trkpt lat="46.13141251" lon="7.09070015"><ele>571.036011</ele><time>2009-06-09T17:30:22Z</time></trkpt>
<trkpt lat="46.13147736" lon="7.09082794"><ele>569.947021</ele><time>2009-06-09T17:30:25Z</time></trkpt>
<trkpt lat="46.13151550" lon="7.09090805"><ele>569.047974</ele><time>2009-06-09T17:30:26Z</time></trkpt>
<trkpt lat="46.13174820" lon="7.09147882"><ele>564.387024</ele><time>2009-06-09T17:30:31Z</time></trkpt>
<trkpt lat="46.13187027" lon="7.09180307"><ele>560.695007</ele><time>2009-06-09T17:30:34Z</time></trkpt>
<trkpt lat="46.13186264" lon="7.09191513"><ele>557.671021</ele><time>2009-06-09T17:30:37Z</time></trkpt>
<trkpt lat="46.13182449" lon="7.09188700"><ele>557.541016</ele><time>2009-06-09T17:30:38Z</time></trkpt>
<trkpt lat="46.13165283" lon="7.09163094"><ele>553.651001</ele><time>2009-06-09T17:30:42Z</time></trkpt>
<trkpt lat="46.13141632" lon="7.09128714"><ele>549.732971</ele><time>2009-06-09T17:30:46Z</time></trkpt>
<trkpt lat="46.13129807" lon="7.09114313"><ele>548.106018</ele><time>2009-06-09T17:30:49Z</time></trkpt>
<trkpt lat="46.13122177" lon="7.09114790"><ele>547.364014</ele><time>2009-06-09T17:30:52Z</time></trkpt>
<trkpt lat="46.13121033" lon="7.09124708"><ele>547.195984</ele><time>2009-06-09T17:30:56Z</time></trkpt>
<trkpt lat="46.13126755" lon="7.09133911"><ele>545.36499</ele><time>2009-06-09T17:31:01Z</time></trkpt>
<trkpt lat="46.13132095" lon="7.09147882"><ele>543.301025</ele><time>2009-06-09T17:31:05Z</time></trkpt>
<trkpt lat="46.13132477" lon="7.09152699"><ele>542.718994</ele><time>2009-06-09T17:31:06Z</time></trkpt>
<trkpt lat="46.13132477" lon="7.09164715"><ele>541.599976</ele><time>2009-06-09T17:31:08Z</time></trkpt>
<trkpt lat="46.13134766" lon="7.09191084"><ele>540.422974</ele><time>2009-06-09T17:31:11Z</time></trkpt>
<trkpt lat="46.13144302" lon="7.09225178"><ele>538.757019</ele><time>2009-06-09T17:31:15Z</time></trkpt>
<trkpt lat="46.13151550" lon="7.09236002"><ele>536.997009</ele><time>2009-06-09T17:31:19Z</time></trkpt>
<trkpt lat="46.13147354" lon="7.09244490"><ele>533.987976</ele><time>2009-06-09T17:31:22Z</time></trkpt>
<trkpt lat="46.13141632" lon="7.09250307"><ele>533.549011</ele><time>2009-06-09T17:31:24Z</time></trkpt>
<trkpt lat="46.13130188" lon="7.09239912"><ele>532.385986</ele><time>2009-06-09T17:31:28Z</time></trkpt>
<trkpt lat="46.13120651" lon="7.09214401"><ele>530.559021</ele><time>2009-06-09T17:31:33Z</time></trkpt>
<trkpt lat="46.13113022" lon="7.09190416"><ele>529.169006</ele><time>2009-06-09T17:31:37Z</time></trkpt>
<trkpt lat="46.13095856" lon="7.09186506"><ele>528.596985</ele><time>2009-06-09T17:31:41Z</time></trkpt>
<trkpt lat="46.13084412" lon="7.09171295"><ele>526.312988</ele><time>2009-06-09T17:31:44Z</time></trkpt>
<trkpt lat="46.13063812" lon="7.09148884"><ele>522.997986</ele><time>2009-06-09T17:31:48Z</time></trkpt>
<trkpt lat="46.13048172" lon="7.09140110"><ele>521.203979</ele><time>2009-06-09T17:31:52Z</time></trkpt>
<trkpt lat="46.13018417" lon="7.09131622"><ele>517.942017</ele><time>2009-06-09T17:31:58Z</time></trkpt>
<trkpt lat="46.13008881" lon="7.09120417"><ele>517.718018</ele><time>2009-06-09T17:32:00Z</time></trkpt>
<trkpt lat="46.12987518" lon="7.09108019"><ele>518.440979</ele><time>2009-06-09T17:32:04Z</time></trkpt>
<trkpt lat="46.12974930" lon="7.09123421"><ele>520.353027</ele><time>2009-06-09T17:32:08Z</time></trkpt>
<trkpt lat="46.12962723" lon="7.09117794"><ele>520.346008</ele><time>2009-06-09T17:32:12Z</time></trkpt>
<trkpt lat="46.12958145" lon="7.09113312"><ele>520.632996</ele><time>2009-06-09T17:32:13Z</time></trkpt>
<trkpt lat="46.12943268" lon="7.09096813"><ele>517.98999</ele><time>2009-06-09T17:32:16Z</time></trkpt>
<trkpt lat="46.12923431" lon="7.09081697"><ele>515.05603</ele><time>2009-06-09T17:32:19Z</time></trkpt>
<trkpt lat="46.12902832" lon="7.09053516"><ele>508.129974</ele><time>2009-06-09T17:32:23Z</time></trkpt>
<trkpt lat="46.12879944" lon="7.09043503"><ele>504.597992</ele><time>2009-06-09T17:32:27Z</time></trkpt>
<trkpt lat="46.12849426" lon="7.09043980"><ele>498.797028</ele><time>2009-06-09T17:32:31Z</time></trkpt>
<trkpt lat="46.12831879" lon="7.09031916"><ele>494.575012</ele><time>2009-06-09T17:32:34Z</time></trkpt>
<trkpt lat="46.12822723" lon="7.09002113"><ele>492.089996</ele><time>2009-06-09T17:32:37Z</time></trkpt>
<trkpt lat="46.12819290" lon="7.08992004"><ele>491.30899</ele><time>2009-06-09T17:32:38Z</time></trkpt>
<trkpt lat="46.12795258" lon="7.08944988"><ele>488.032013</ele><time>2009-06-09T17:32:43Z</time></trkpt>
<trkpt lat="46.12760544" lon="7.08886814"><ele>484.127014</ele><time>2009-06-09T17:32:49Z</time></trkpt>
<trkpt lat="46.12715149" lon="7.08814907"><ele>479.709015</ele><time>2009-06-09T17:32:56Z</time></trkpt>
<trkpt lat="46.12670517" lon="7.08759689"><ele>476.229004</ele><time>2009-06-09T17:33:02Z</time></trkpt>
<trkpt lat="46.12607574" lon="7.08685207"><ele>470.515991</ele><time>2009-06-09T17:33:10Z</time></trkpt>
<trkpt lat="46.12576294" lon="7.08648586"><ele>469.127991</ele><time>2009-06-09T17:33:14Z</time></trkpt>
<trkpt lat="46.12550354" lon="7.08597517"><ele>469.27301</ele><time>2009-06-09T17:33:19Z</time></trkpt>
<trkpt lat="46.12538147" lon="7.08571577"><ele>469.765991</ele><time>2009-06-09T17:33:22Z</time></trkpt>
<trkpt lat="46.12522125" lon="7.08561897"><ele>470.140015</ele><time>2009-06-09T17:33:25Z</time></trkpt>
<trkpt lat="46.12512589" lon="7.08568907"><ele>470.377991</ele><time>2009-06-09T17:33:27Z</time></trkpt>
<trkpt lat="46.12500000" lon="7.08582592"><ele>470.501984</ele><time>2009-06-09T17:33:30Z</time></trkpt>
<trkpt lat="46.12485504" lon="7.08581686"><ele>470.678009</ele><time>2009-06-09T17:33:34Z</time></trkpt>
<trkpt lat="46.12475967" lon="7.08566523"><ele>470.737</ele><time>2009-06-09T17:33:38Z</time></trkpt>
<trkpt lat="46.12472534" lon="7.08565283"><ele>470.682007</ele><time>2009-06-09T17:33:39Z</time></trkpt>
<trkpt lat="46.12457657" lon="7.08559895"><ele>470.427002</ele><time>2009-06-09T17:33:43Z</time></trkpt>
<trkpt lat="46.12438583" lon="7.08567286"><ele>470.098999</ele><time>2009-06-09T17:33:48Z</time></trkpt>
<trkpt lat="46.12437820" lon="7.08579111"><ele>469.839996</ele><time>2009-06-09T17:33:50Z</time></trkpt>
<trkpt lat="46.12438965" lon="7.08585215"><ele>469.760986</ele><time>2009-06-09T17:33:51Z</time></trkpt>
<trkpt lat="46.12450790" lon="7.08630514"><ele>468.5</ele><time>2009-06-09T17:33:57Z</time></trkpt>
<trkpt lat="46.12467194" lon="7.08686209"><ele>468.635986</ele><time>2009-06-09T17:34:04Z</time></trkpt>
<trkpt lat="46.12487030" lon="7.08765078"><ele>469.348999</ele><time>2009-06-09T17:34:13Z</time></trkpt>
<trkpt lat="46.12506104" lon="7.08847094"><ele>469.471985</ele><time>2009-06-09T17:34:22Z</time></trkpt>
<trkpt lat="46.12525558" lon="7.08928823"><ele>468.908966</ele><time>2009-06-09T17:34:31Z</time></trkpt>
<trkpt lat="46.12542343" lon="7.09000778"><ele>468.762024</ele><time>2009-06-09T17:34:39Z</time></trkpt>
<trkpt lat="46.12560272" lon="7.09081078"><ele>468.43103</ele><time>2009-06-09T17:34:48Z</time></trkpt>
<trkpt lat="46.12576675" lon="7.09152412"><ele>468.514038</ele><time>2009-06-09T17:34:56Z</time></trkpt>
<trkpt lat="46.12596130" lon="7.09240198"><ele>469.084015</ele><time>2009-06-09T17:35:06Z</time></trkpt>
<trkpt lat="46.12613297" lon="7.09317589"><ele>469.472992</ele><time>2009-06-09T17:35:15Z</time></trkpt>
<trkpt lat="46.12634659" lon="7.09414577"><ele>469.927002</ele><time>2009-06-09T17:35:26Z</time></trkpt>
<trkpt lat="46.12652588" lon="7.09494400"><ele>470.235992</ele><time>2009-06-09T17:35:35Z</time></trkpt>
<trkpt lat="46.12676620" lon="7.09599590"><ele>470.397003</ele><time>2009-06-09T17:35:47Z</time></trkpt>
<trkpt lat="46.12695313" lon="7.09676790"><ele>470.768005</ele><time>2009-06-09T17:35:56Z</time></trkpt>
<trkpt lat="46.12721634" lon="7.09772110"><ele>470.880035</ele><time>2009-06-09T17:36:07Z</time></trkpt>
<trkpt lat="46.12750626" lon="7.09861898"><ele>471.036987</ele><time>2009-06-09T17:36:18Z</time></trkpt>
<trkpt lat="46.12776184" lon="7.09933615"><ele>470.65802</ele><time>2009-06-09T17:36:27Z</time></trkpt>
<trkpt lat="46.12807083" lon="7.10015202"><ele>470.378998</ele><time>2009-06-09T17:36:37Z</time></trkpt>
<trkpt lat="46.12835693" lon="7.10091209"><ele>470.019989</ele><time>2009-06-09T17:36:46Z</time></trkpt>
<trkpt lat="46.12867737" lon="7.10175323"><ele>470.048004</ele><time>2009-06-09T17:36:56Z</time></trkpt>
<trkpt lat="46.12899780" lon="7.10260105"><ele>470.110992</ele><time>2009-06-09T17:37:06Z</time></trkpt>
<trkpt lat="46.12936401" lon="7.10356379"><ele>470.274994</ele><time>2009-06-09T17:37:17Z</time></trkpt>
<trkpt lat="46.12972260" lon="7.10451794"><ele>470.239014</ele><time>2009-06-09T17:37:28Z</time></trkpt>
<trkpt lat="46.13007355" lon="7.10544395"><ele>470.210999</ele><time>2009-06-09T17:37:39Z</time></trkpt>
<trkpt lat="46.13036346" lon="7.10619593"><ele>470.304993</ele><time>2009-06-09T17:37:48Z</time></trkpt>
<trkpt lat="46.13068390" lon="7.10704803"><ele>470.31601</ele><time>2009-06-09T17:37:58Z</time></trkpt>
<trkpt lat="46.13097382" lon="7.10782814"><ele>470.160004</ele><time>2009-06-09T17:38:07Z</time></trkpt>
<trkpt lat="46.13122559" lon="7.10850191"><ele>469.971008</ele><time>2009-06-09T17:38:15Z</time></trkpt>
<trkpt lat="46.13154602" lon="7.10933781"><ele>469.65799</ele><time>2009-06-09T17:38:25Z</time></trkpt>
<trkpt lat="46.13186264" lon="7.11016989"><ele>470.082001</ele><time>2009-06-09T17:38:35Z</time></trkpt>
<trkpt lat="46.13208008" lon="7.11074209"><ele>470.080994</ele><time>2009-06-09T17:38:42Z</time></trkpt>
<trkpt lat="46.13238907" lon="7.11155891"><ele>470.122009</ele><time>2009-06-09T17:38:52Z</time></trkpt>
<trkpt lat="46.13263321" lon="7.11220884"><ele>470.020996</ele><time>2009-06-09T17:39:00Z</time></trkpt>
<trkpt lat="46.13291168" lon="7.11293888"><ele>470.44101</ele><time>2009-06-09T17:39:09Z</time></trkpt>
<trkpt lat="46.13312149" lon="7.11349583"><ele>470.550995</ele><time>2009-06-09T17:39:16Z</time></trkpt>
<trkpt lat="46.13342285" lon="7.11429310"><ele>470.27301</ele><time>2009-06-09T17:39:26Z</time></trkpt>
<trkpt lat="46.13371658" lon="7.11507607"><ele>470.634003</ele><time>2009-06-09T17:39:36Z</time></trkpt>
<trkpt lat="46.13396454" lon="7.11579704"><ele>470.727997</ele><time>2009-06-09T17:39:45Z</time></trkpt>
<trkpt lat="46.13423920" lon="7.11665106"><ele>470.855011</ele><time>2009-06-09T17:39:55Z</time></trkpt>
<trkpt lat="46.13451385" lon="7.11751509"><ele>470.993988</ele><time>2009-06-09T17:40:05Z</time></trkpt>
<trkpt lat="46.13478851" lon="7.11838102"><ele>471.265015</ele><time>2009-06-09T17:40:15Z</time></trkpt>
<trkpt lat="46.13500595" lon="7.11907291"><ele>471.36499</ele><time>2009-06-09T17:40:23Z</time></trkpt>
<trkpt lat="46.13518143" lon="7.11967516"><ele>471.384003</ele><time>2009-06-09T17:40:30Z</time></trkpt>
<trkpt lat="46.13538742" lon="7.12035084"><ele>471.639008</ele><time>2009-06-09T17:40:38Z</time></trkpt>
<trkpt lat="46.13557434" lon="7.12098694"><ele>472.297028</ele><time>2009-06-09T17:40:46Z</time></trkpt>
<trkpt lat="46.13566971" lon="7.12126493"><ele>472.95401</ele><time>2009-06-09T17:40:51Z</time></trkpt>
<trkpt lat="46.13575363" lon="7.12161112"><ele>472.612</ele><time>2009-06-09T17:40:56Z</time></trkpt>
<trkpt lat="46.13592911" lon="7.12227011"><ele>472.615997</ele><time>2009-06-09T17:41:04Z</time></trkpt>
<trkpt lat="46.13618088" lon="7.12320900"><ele>472.617004</ele><time>2009-06-09T17:41:15Z</time></trkpt>
<trkpt lat="46.13639069" lon="7.12398005"><ele>471.966034</ele><time>2009-06-09T17:41:24Z</time></trkpt>
<trkpt lat="46.13660812" lon="7.12478399"><ele>471.667999</ele><time>2009-06-09T17:41:33Z</time></trkpt>
<trkpt lat="46.13685989" lon="7.12565708"><ele>471.364014</ele><time>2009-06-09T17:41:43Z</time></trkpt>
<trkpt lat="46.13704681" lon="7.12634277"><ele>471.03598</ele><time>2009-06-09T17:41:51Z</time></trkpt>
<trkpt lat="46.13720703" lon="7.12697220"><ele>471.037994</ele><time>2009-06-09T17:41:58Z</time></trkpt>
<trkpt lat="46.13744736" lon="7.12779093"><ele>470.954987</ele><time>2009-06-09T17:42:07Z</time></trkpt>
<trkpt lat="46.13772964" lon="7.12859297"><ele>470.563995</ele><time>2009-06-09T17:42:16Z</time></trkpt>
<trkpt lat="46.13809967" lon="7.12953901"><ele>471.328003</ele><time>2009-06-09T17:42:27Z</time></trkpt>
<trkpt lat="46.13848877" lon="7.13035583"><ele>470.984009</ele><time>2009-06-09T17:42:37Z</time></trkpt>
<trkpt lat="46.13890839" lon="7.13108397"><ele>470.620972</ele><time>2009-06-09T17:42:47Z</time></trkpt>
<trkpt lat="46.13913727" lon="7.13150120"><ele>470.768982</ele><time>2009-06-09T17:42:53Z</time></trkpt>
<trkpt lat="46.13947678" lon="7.13205290"><ele>470.632996</ele><time>2009-06-09T17:43:01Z</time></trkpt>
<trkpt lat="46.13976288" lon="7.13252878"><ele>470.429993</ele><time>2009-06-09T17:43:08Z</time></trkpt>
<trkpt lat="46.14010620" lon="7.13308716"><ele>470.306</ele><time>2009-06-09T17:43:16Z</time></trkpt>
<trkpt lat="46.14048386" lon="7.13370991"><ele>469.93103</ele><time>2009-06-09T17:43:25Z</time></trkpt>
<trkpt lat="46.14098740" lon="7.13452911"><ele>470.006042</ele><time>2009-06-09T17:43:37Z</time></trkpt>
<trkpt lat="46.14131546" lon="7.13506317"><ele>470.097992</ele><time>2009-06-09T17:43:45Z</time></trkpt>
<trkpt lat="46.14160919" lon="7.13554811"><ele>470.427002</ele><time>2009-06-09T17:43:52Z</time></trkpt>
<trkpt lat="46.14208984" lon="7.13631916"><ele>470.675964</ele><time>2009-06-09T17:44:03Z</time></trkpt>
<trkpt lat="46.14250946" lon="7.13699818"><ele>470.944031</ele><time>2009-06-09T17:44:13Z</time></trkpt>
<trkpt lat="46.14273071" lon="7.13733721"><ele>471.352997</ele><time>2009-06-09T17:44:19Z</time></trkpt>
<trkpt lat="46.14290619" lon="7.13766193"><ele>470.903992</ele><time>2009-06-09T17:44:24Z</time></trkpt>
<trkpt lat="46.14325333" lon="7.13828897"><ele>472.109985</ele><time>2009-06-09T17:44:33Z</time></trkpt>
<trkpt lat="46.14358902" lon="7.13889122"><ele>472.212006</ele><time>2009-06-09T17:44:41Z</time></trkpt>
<trkpt lat="46.14397430" lon="7.13961077"><ele>472.377991</ele><time>2009-06-09T17:44:50Z</time></trkpt>
<trkpt lat="46.14434433" lon="7.14034414"><ele>472.662994</ele><time>2009-06-09T17:44:59Z</time></trkpt>
<trkpt lat="46.14480209" lon="7.14129591"><ele>472.544006</ele><time>2009-06-09T17:45:11Z</time></trkpt>
<trkpt lat="46.14516068" lon="7.14208698"><ele>472.795044</ele><time>2009-06-09T17:45:21Z</time></trkpt>
<trkpt lat="46.14552307" lon="7.14287996"><ele>473.11496</ele><time>2009-06-09T17:45:31Z</time></trkpt>
<trkpt lat="46.14587021" lon="7.14363623"><ele>472.841003</ele><time>2009-06-09T17:45:40Z</time></trkpt>
<trkpt lat="46.14626312" lon="7.14449215"><ele>472.964996</ele><time>2009-06-09T17:45:50Z</time></trkpt>
<trkpt lat="46.14666367" lon="7.14536524"><ele>472.734985</ele><time>2009-06-09T17:46:00Z</time></trkpt>
<trkpt lat="46.14697647" lon="7.14604902"><ele>472.674988</ele><time>2009-06-09T17:46:08Z</time></trkpt>
<trkpt lat="46.14733124" lon="7.14682579"><ele>473.348999</ele><time>2009-06-09T17:46:17Z</time></trkpt>
<trkpt lat="46.14772415" lon="7.14767218"><ele>473.569</ele><time>2009-06-09T17:46:27Z</time></trkpt>
<trkpt lat="46.14804077" lon="7.14827919"><ele>473.139008</ele><time>2009-06-09T17:46:35Z</time></trkpt>
<trkpt lat="46.14833069" lon="7.14875698"><ele>470.114014</ele><time>2009-06-09T17:46:41Z</time></trkpt>
<trkpt lat="46.14855576" lon="7.14917421"><ele>468.220001</ele><time>2009-06-09T17:46:45Z</time></trkpt>
<trkpt lat="46.14878845" lon="7.14977312"><ele>470.427979</ele><time>2009-06-09T17:46:51Z</time></trkpt>
<trkpt lat="46.14893341" lon="7.15021086"><ele>472.757019</ele><time>2009-06-09T17:46:57Z</time></trkpt>
<trkpt lat="46.14897156" lon="7.15035009"><ele>472.919006</ele><time>2009-06-09T17:46:59Z</time></trkpt>
<trkpt lat="46.14921188" lon="7.15089512"><ele>472.662994</ele><time>2009-06-09T17:47:07Z</time></trkpt>
<trkpt lat="46.14949417" lon="7.15154314"><ele>473.056</ele><time>2009-06-09T17:47:16Z</time></trkpt>
<trkpt lat="46.14983749" lon="7.15229511"><ele>473.03302</ele><time>2009-06-09T17:47:26Z</time></trkpt>
<trkpt lat="46.15015793" lon="7.15300322"><ele>473.286011</ele><time>2009-06-09T17:47:35Z</time></trkpt>
<trkpt lat="46.15045166" lon="7.15364122"><ele>473.459015</ele><time>2009-06-09T17:47:43Z</time></trkpt>
<trkpt lat="46.15074158" lon="7.15428114"><ele>473.572998</ele><time>2009-06-09T17:47:51Z</time></trkpt>
<trkpt lat="46.15106201" lon="7.15497780"><ele>474.257996</ele><time>2009-06-09T17:48:00Z</time></trkpt>
<trkpt lat="46.15128326" lon="7.15544510"><ele>473.55899</ele><time>2009-06-09T17:48:06Z</time></trkpt>
<trkpt lat="46.15145493" lon="7.15584087"><ele>473.90799</ele><time>2009-06-09T17:48:11Z</time></trkpt>
<trkpt lat="46.15169144" lon="7.15635109"><ele>474.299988</ele><time>2009-06-09T17:48:18Z</time></trkpt>
<trkpt lat="46.15195847" lon="7.15693283"><ele>474.320007</ele><time>2009-06-09T17:48:26Z</time></trkpt>
<trkpt lat="46.15219116" lon="7.15744495"><ele>474.950989</ele><time>2009-06-09T17:48:33Z</time></trkpt>
<trkpt lat="46.15248871" lon="7.15810585"><ele>476.054993</ele><time>2009-06-09T17:48:42Z</time></trkpt>
<trkpt lat="46.15287399" lon="7.15892887"><ele>474.937012</ele><time>2009-06-09T17:48:53Z</time></trkpt>
<trkpt lat="46.15319824" lon="7.15963078"><ele>474.76001</ele><time>2009-06-09T17:49:02Z</time></trkpt>
<trkpt lat="46.15354538" lon="7.16037703"><ele>475.359985</ele><time>2009-06-09T17:49:12Z</time></trkpt>
<trkpt lat="46.15387726" lon="7.16111088"><ele>474.85199</ele><time>2009-06-09T17:49:22Z</time></trkpt>
<trkpt lat="46.15411758" lon="7.16162300"><ele>474.615967</ele><time>2009-06-09T17:49:29Z</time></trkpt>
<trkpt lat="46.15442657" lon="7.16230106"><ele>474.677002</ele><time>2009-06-09T17:49:38Z</time></trkpt>
<trkpt lat="46.15468216" lon="7.16289711"><ele>474.731995</ele><time>2009-06-09T17:49:46Z</time></trkpt>
<trkpt lat="46.15495300" lon="7.16353703"><ele>474.618988</ele><time>2009-06-09T17:49:55Z</time></trkpt>
<trkpt lat="46.15516281" lon="7.16406202"><ele>474.507996</ele><time>2009-06-09T17:50:03Z</time></trkpt>
<trkpt lat="46.15528488" lon="7.16437101"><ele>474.467957</ele><time>2009-06-09T17:50:08Z</time></trkpt>
<trkpt lat="46.15552521" lon="7.16500521"><ele>474.442993</ele><time>2009-06-09T17:50:18Z</time></trkpt>
<trkpt lat="46.15561676" lon="7.16525221"><ele>474.536011</ele><time>2009-06-09T17:50:22Z</time></trkpt>
<trkpt lat="46.15573502" lon="7.16547012"><ele>474.065002</ele><time>2009-06-09T17:50:26Z</time></trkpt>
<trkpt lat="46.15579987" lon="7.16560602"><ele>473.386993</ele><time>2009-06-09T17:50:28Z</time></trkpt>
<trkpt lat="46.15590286" lon="7.16570282"><ele>472.067993</ele><time>2009-06-09T17:50:31Z</time></trkpt>
<trkpt lat="46.15594482" lon="7.16567421"><ele>472.121979</ele><time>2009-06-09T17:50:32Z</time></trkpt>
<trkpt lat="46.15629959" lon="7.16530704"><ele>467.865997</ele><time>2009-06-09T17:50:40Z</time></trkpt>
<trkpt lat="46.15678406" lon="7.16484499"><ele>469.658997</ele><time>2009-06-09T17:50:50Z</time></trkpt>
<trkpt lat="46.15709305" lon="7.16456985"><ele>469.640015</ele><time>2009-06-09T17:50:57Z</time></trkpt>
<trkpt lat="46.15754700" lon="7.16416693"><ele>469.859009</ele><time>2009-06-09T17:51:07Z</time></trkpt>
<trkpt lat="46.15799713" lon="7.16375685"><ele>469.169006</ele><time>2009-06-09T17:51:17Z</time></trkpt>
<trkpt lat="46.15838623" lon="7.16341209"><ele>468.894989</ele><time>2009-06-09T17:51:26Z</time></trkpt>
<trkpt lat="46.15856171" lon="7.16325092"><ele>468.850006</ele><time>2009-06-09T17:51:32Z</time></trkpt>
<trkpt lat="46.15861893" lon="7.16332579"><ele>468.724976</ele><time>2009-06-09T17:51:36Z</time></trkpt>
<trkpt lat="46.15862656" lon="7.16335011"><ele>468.630005</ele><time>2009-06-09T17:51:37Z</time></trkpt>
<trkpt lat="46.15865326" lon="7.16338205"><ele>468.699005</ele><time>2009-06-09T17:51:42Z</time></trkpt>
<trkpt lat="46.15864182" lon="7.16340923"><ele>469.312012</ele><time>2009-06-09T17:51:48Z</time></trkpt>
<trkpt lat="46.15878677" lon="7.16341686"><ele>474.20401</ele><time>2009-06-09T18:00:18Z</time></trkpt>
<trkpt lat="46.15885925" lon="7.16341877"><ele>474.019989</ele><time>2009-06-09T18:00:22Z</time></trkpt>
<trkpt lat="46.15893173" lon="7.16359282"><ele>473.194</ele><time>2009-06-09T18:00:27Z</time></trkpt>
<trkpt lat="46.15905762" lon="7.16397715"><ele>471.503998</ele><time>2009-06-09T18:00:35Z</time></trkpt>
<trkpt lat="46.15915680" lon="7.16417313"><ele>469.968994</ele><time>2009-06-09T18:00:40Z</time></trkpt>
<trkpt lat="46.15928268" lon="7.16414309"><ele>469.071991</ele><time>2009-06-09T18:00:44Z</time></trkpt>
<trkpt lat="46.15964508" lon="7.16380787"><ele>466.372009</ele><time>2009-06-09T18:00:54Z</time></trkpt>
<trkpt lat="46.16004181" lon="7.16343594"><ele>464.644012</ele><time>2009-06-09T18:01:04Z</time></trkpt>
<trkpt lat="46.16050720" lon="7.16301489"><ele>465.010986</ele><time>2009-06-09T18:01:15Z</time></trkpt>
<trkpt lat="46.16087341" lon="7.16268682"><ele>465.328979</ele><time>2009-06-09T18:01:24Z</time></trkpt>
<trkpt lat="46.16091156" lon="7.16265202"><ele>465.347992</ele><time>2009-06-09T18:01:25Z</time></trkpt>
<trkpt lat="46.16106033" lon="7.16264582"><ele>465.577026</ele><time>2009-06-09T18:01:29Z</time></trkpt>
<trkpt lat="46.16112137" lon="7.16282511"><ele>466.045959</ele><time>2009-06-09T18:01:32Z</time></trkpt>
<trkpt lat="46.16130829" lon="7.16349316"><ele>467.195007</ele><time>2009-06-09T18:01:42Z</time></trkpt>
<trkpt lat="46.16147232" lon="7.16414309"><ele>467.437988</ele><time>2009-06-09T18:01:51Z</time></trkpt>
<trkpt lat="46.16164398" lon="7.16476393"><ele>467.60202</ele><time>2009-06-09T18:02:00Z</time></trkpt>
<trkpt lat="46.16178513" lon="7.16516113"><ele>467.69101</ele><time>2009-06-09T18:02:06Z</time></trkpt>
<trkpt lat="46.16197205" lon="7.16541910"><ele>467.600006</ele><time>2009-06-09T18:02:11Z</time></trkpt>
<trkpt lat="46.16230011" lon="7.16577578"><ele>468.062012</ele><time>2009-06-09T18:02:19Z</time></trkpt>
<trkpt lat="46.16268921" lon="7.16616583"><ele>468.422028</ele><time>2009-06-09T18:02:28Z</time></trkpt>
<trkpt lat="46.16320801" lon="7.16670418"><ele>468.762024</ele><time>2009-06-09T18:02:40Z</time></trkpt>
<trkpt lat="46.16365814" lon="7.16714382"><ele>469.35199</ele><time>2009-06-09T18:02:50Z</time></trkpt>
<trkpt lat="46.16409302" lon="7.16758919"><ele>469.602997</ele><time>2009-06-09T18:03:00Z</time></trkpt>
<trkpt lat="46.16451645" lon="7.16803122"><ele>469.710022</ele><time>2009-06-09T18:03:10Z</time></trkpt>
<trkpt lat="46.16500854" lon="7.16854382"><ele>470.089996</ele><time>2009-06-09T18:03:22Z</time></trkpt>
<trkpt lat="46.16532135" lon="7.16886377"><ele>470.260956</ele><time>2009-06-09T18:03:30Z</time></trkpt>
<trkpt lat="46.16562271" lon="7.16917419"><ele>470.312012</ele><time>2009-06-09T18:03:38Z</time></trkpt>
<trkpt lat="46.16569138" lon="7.16925192"><ele>470.289978</ele><time>2009-06-09T18:03:40Z</time></trkpt>
<trkpt lat="46.16576385" lon="7.16932487"><ele>470.311005</ele><time>2009-06-09T18:03:42Z</time></trkpt>
<trkpt lat="46.16610336" lon="7.16971588"><ele>469.850006</ele><time>2009-06-09T18:03:52Z</time></trkpt>
<trkpt lat="46.16647339" lon="7.17021799"><ele>469.941986</ele><time>2009-06-09T18:04:03Z</time></trkpt>
<trkpt lat="46.16679382" lon="7.17066908"><ele>470.221985</ele><time>2009-06-09T18:04:13Z</time></trkpt>
<trkpt lat="46.16708374" lon="7.17108202"><ele>470.503998</ele><time>2009-06-09T18:04:22Z</time></trkpt>
<trkpt lat="46.16734695" lon="7.17154408"><ele>470.84198</ele><time>2009-06-09T18:04:31Z</time></trkpt>
<trkpt lat="46.16744232" lon="7.17194986"><ele>471.333008</ele><time>2009-06-09T18:04:37Z</time></trkpt>
<trkpt lat="46.16753006" lon="7.17253304"><ele>471.771973</ele><time>2009-06-09T18:04:45Z</time></trkpt>
<trkpt lat="46.16755676" lon="7.17275381"><ele>472.157013</ele><time>2009-06-09T18:04:48Z</time></trkpt>
<trkpt lat="46.16764450" lon="7.17342091"><ele>472.71701</ele><time>2009-06-09T18:04:57Z</time></trkpt>
<trkpt lat="46.16775513" lon="7.17416906"><ele>473.026001</ele><time>2009-06-09T18:05:07Z</time></trkpt>
<trkpt lat="46.16790390" lon="7.17517805"><ele>473.075989</ele><time>2009-06-09T18:05:20Z</time></trkpt>
<trkpt lat="46.16804886" lon="7.17610502"><ele>473.13504</ele><time>2009-06-09T18:05:32Z</time></trkpt>
<trkpt lat="46.16813278" lon="7.17666006"><ele>472.895996</ele><time>2009-06-09T18:05:40Z</time></trkpt>
<trkpt lat="46.16820526" lon="7.17714405"><ele>473.006989</ele><time>2009-06-09T18:05:48Z</time></trkpt>
<trkpt lat="46.16822433" lon="7.17724609"><ele>472.995972</ele><time>2009-06-09T18:05:50Z</time></trkpt>
<trkpt lat="46.16834259" lon="7.17732000"><ele>472.840027</ele><time>2009-06-09T18:05:54Z</time></trkpt>
<trkpt lat="46.16838074" lon="7.17741823"><ele>472.320007</ele><time>2009-06-09T18:05:56Z</time></trkpt>
<trkpt lat="46.16838837" lon="7.17748690"><ele>472.273987</ele><time>2009-06-09T18:05:57Z</time></trkpt>
<trkpt lat="46.16843796" lon="7.17789507"><ele>472.083008</ele><time>2009-06-09T18:06:03Z</time></trkpt>
<trkpt lat="46.16854477" lon="7.17803001"><ele>472.243988</ele><time>2009-06-09T18:06:07Z</time></trkpt>
<trkpt lat="46.16858673" lon="7.17801523"><ele>472.024994</ele><time>2009-06-09T18:06:08Z</time></trkpt>
<trkpt lat="46.16898346" lon="7.17788887"><ele>471.311981</ele><time>2009-06-09T18:06:17Z</time></trkpt>
<trkpt lat="46.16910553" lon="7.17785215"><ele>470.989014</ele><time>2009-06-09T18:06:20Z</time></trkpt>
<trkpt lat="46.16920853" lon="7.17799807"><ele>470.709991</ele><time>2009-06-09T18:06:24Z</time></trkpt>
<trkpt lat="46.16932678" lon="7.17866611"><ele>469.527039</ele><time>2009-06-09T18:06:35Z</time></trkpt>
<trkpt lat="46.16938782" lon="7.17896414"><ele>469.655029</ele><time>2009-06-09T18:06:41Z</time></trkpt>
<trkpt lat="46.16935349" lon="7.17901707"><ele>469.897003</ele><time>2009-06-09T18:06:44Z</time></trkpt>
<trkpt lat="46.16934967" lon="7.17901897"><ele>470.300995</ele><time>2009-06-09T18:06:46Z</time></trkpt>
</trkseg></trk></gpx>